Check out our new PWSWeather beta!
PWSweather.com
Personal Weather Stations
Station Observations
KD5LEN
Ktxnorth1, North Richland Hills, TX 76180

Ktxnorth1North Richland Hills, TX 76180

Lat: 32.885294, Lon: -97.236048

Elevation: 694

Station Type: Vantage Pro 2

http://www.atzer0.net/VWS/root/index.htm

High Low Average
Temperature 56.6°F13.7°C 40.8°F4.9°C 48.9°F9.4°C
Dew Point 28.0°F-2.2°C 20.0°F-6.7°C 24.0°F-4.4°C
Winds 23.0 mph 37.0 kmh 2.0 mph 3.2 kmh 9.0 mph NW14.5 kmh NW
Wind Gusts 30.0 mph48.3 kmh 4.0 mph6.4 kmh 16.0 mph25.7 kmh
Humidity 52% 28% 38%
Pressure 30.21 in1023.0 mb 29.84 in1010.5 mb -
Precipitation 0.00 in0.0 mm - -
Hour Temp Dew Point Humidity Winds Wind Gusts Pressure Precip Precip Rate Daily Precip Total
12:00 AM 53.2°F11.8°C 21.8°F-5.7°C 29% 9.0 mph WSW14.5 kmh WSW 17.0 mph27.4 kmh 29.84 in1010.5 mb 0.00 in0.0 mm 0.00 in0.0 mm 0.00 in0.0 mm
12:02 AM 53.2°F11.8°C 21.8°F-5.7°C 29% 8.0 mph W12.9 kmh W 17.0 mph27.4 kmh 29.84 in1010.5 mb 0.00 in0.0 mm 0.00 in0.0 mm 0.00 in0.0 mm
12:04 AM 53.0°F11.7°C 22.4°F-5.3°C 30% 4.0 mph W6.4 kmh W 10.0 mph16.1 kmh 29.84 in1010.5 mb 0.00 in0.0 mm 0.00 in0.0 mm 0.00 in0.0 mm
12:06 AM 52.9°F11.6°C 22.3°F-5.4°C 30% 10.0 mph W16.1 kmh W 12.0 mph19.3 kmh 29.85 in1010.8 mb 0.00 in0.0 mm 0.00 in0.0 mm 0.00 in0.0 mm
12:08 AM 52.8°F11.6°C 22.2°F-5.4°C 30% 8.0 mph WSW12.9 kmh WSW 12.0 mph19.3 kmh 29.84 in1010.5 mb 0.00 in0.0 mm 0.00 in0.0 mm 0.00 in0.0 mm
12:10 AM 52.7°F11.5°C 22.2°F-5.4°C 30% 8.0 mph WNW12.9 kmh WNW 13.0 mph20.9 kmh 29.85 in1010.8 mb 0.00 in0.0 mm 0.00 in0.0 mm 0.00 in0.0 mm
12:12 AM 52.7°F11.5°C 22.2°F-5.4°C 30% 8.0 mph WNW12.9 kmh WNW 13.0 mph20.9 kmh 29.85 in1010.8 mb 0.00 in0.0 mm 0.00 in0.0 mm 0.00 in0.0 mm
12:15 AM 52.5°F11.4°C 22.8°F-5.1°C 31% 7.0 mph WNW11.3 kmh WNW 13.0 mph20.9 kmh 29.85 in1010.8 mb 0.00 in0.0 mm 0.00 in0.0 mm 0.00 in0.0 mm
12:17 AM 52.4°F11.3°C 22.7°F-5.2°C 31% 10.0 mph W16.1 kmh W 13.0 mph20.9 kmh 29.85 in1010.8 mb 0.00 in0.0 mm 0.00 in0.0 mm 0.00 in0.0 mm
12:19 AM 52.4°F11.3°C 22.7°F-5.2°C 31% 8.0 mph W12.9 kmh W 13.0 mph20.9 kmh 29.85 in1010.8 mb 0.00 in0.0 mm 0.00 in0.0 mm 0.00 in0.0 mm
12:21 AM 52.2°F11.2°C 22.5°F-5.3°C 31% 9.0 mph W14.5 kmh W 13.0 mph20.9 kmh 29.86 in1011.2 mb 0.00 in0.0 mm 0.00 in0.0 mm 0.00 in0.0 mm
12:24 AM 52.1°F11.2°C 22.4°F-5.3°C 31% 9.0 mph WNW14.5 kmh WNW 13.0 mph20.9 kmh 29.86 in1011.2 mb 0.00 in0.0 mm 0.00 in0.0 mm 0.00 in0.0 mm
12:26 AM 51.9°F11.1°C 23.0°F-5.0°C 32% 8.0 mph W12.9 kmh W 13.0 mph20.9 kmh 29.86 in1011.2 mb 0.00 in0.0 mm 0.00 in0.0 mm 0.00 in0.0 mm
12:28 AM 51.9°F11.1°C 22.2°F-5.4°C 31% 7.0 mph W11.3 kmh W 13.0 mph20.9 kmh 29.86 in1011.2 mb 0.00 in0.0 mm 0.00 in0.0 mm 0.00 in0.0 mm
12:30 AM 51.9°F11.1°C 22.2°F-5.4°C 31% 6.0 mph W9.7 kmh W 14.0 mph22.5 kmh 29.86 in1011.2 mb 0.00 in0.0 mm 0.00 in0.0 mm 0.00 in0.0 mm
12:32 AM 51.8°F11.0°C 22.9°F-5.1°C 32% 8.0 mph WNW12.9 kmh WNW 14.0 mph22.5 kmh 29.86 in1011.2 mb 0.00 in0.0 mm 0.00 in0.0 mm 0.00 in0.0 mm
12:34 AM 51.8°F11.0°C 22.9°F-5.1°C 32% 6.0 mph W9.7 kmh W 11.0 mph17.7 kmh 29.86 in1011.2 mb 0.00 in0.0 mm 0.00 in0.0 mm 0.00 in0.0 mm
12:36 AM 51.7°F10.9°C 22.8°F-5.1°C 32% 8.0 mph W12.9 kmh W 11.0 mph17.7 kmh 29.86 in1011.2 mb 0.00 in0.0 mm 0.00 in0.0 mm 0.00 in0.0 mm
12:38 AM 51.7°F10.9°C 22.8°F-5.1°C 32% 10.0 mph WNW16.1 kmh WNW 14.0 mph22.5 kmh 29.86 in1011.2 mb 0.00 in0.0 mm 0.00 in0.0 mm 0.00 in0.0 mm
12:40 AM 51.7°F10.9°C 22.8°F-5.1°C 32% 10.0 mph NW16.1 kmh NW 15.0 mph24.1 kmh 29.86 in1011.2 mb 0.00 in0.0 mm 0.00 in0.0 mm 0.00 in0.0 mm
12:42 AM 51.8°F11.0°C 22.9°F-5.1°C 32% 12.0 mph WNW19.3 kmh WNW 17.0 mph27.4 kmh 29.86 in1011.2 mb 0.00 in0.0 mm 0.00 in0.0 mm 0.00 in0.0 mm
12:44 AM 51.7°F10.9°C 22.8°F-5.1°C 32% 12.0 mph NW19.3 kmh NW 17.0 mph27.4 kmh 29.87 in1011.5 mb 0.00 in0.0 mm 0.00 in0.0 mm 0.00 in0.0 mm
12:46 AM 51.7°F10.9°C 22.8°F-5.1°C 32% 9.0 mph WNW14.5 kmh WNW 17.0 mph27.4 kmh 29.87 in1011.5 mb 0.00 in0.0 mm 0.00 in0.0 mm 0.00 in0.0 mm
12:48 AM 51.7°F10.9°C 22.8°F-5.1°C 32% 10.0 mph W16.1 kmh W 17.0 mph27.4 kmh 29.87 in1011.5 mb 0.00 in0.0 mm 0.00 in0.0 mm 0.00 in0.0 mm
12:49 AM 51.7°F10.9°C 22.8°F-5.1°C 32% 12.0 mph W19.3 kmh W 17.0 mph27.4 kmh 29.87 in1011.5 mb 0.00 in0.0 mm 0.00 in0.0 mm 0.00 in0.0 mm
12:52 AM 51.6°F10.9°C 23.5°F-4.7°C 33% 11.0 mph W17.7 kmh W 17.0 mph27.4 kmh 29.87 in1011.5 mb 0.00 in0.0 mm 0.00 in0.0 mm 0.00 in0.0 mm
12:54 AM 51.5°F10.8°C 23.4°F-4.8°C 33% 8.0 mph WNW12.9 kmh WNW 17.0 mph27.4 kmh 29.87 in1011.5 mb 0.00 in0.0 mm 0.00 in0.0 mm 0.00 in0.0 mm
12:56 AM 51.5°F10.8°C 22.6°F-5.2°C 32% 15.0 mph WNW24.1 kmh WNW 17.0 mph27.4 kmh 29.87 in1011.5 mb 0.00 in0.0 mm 0.00 in0.0 mm 0.00 in0.0 mm
12:58 AM 51.5°F10.8°C 23.4°F-4.8°C 33% 11.0 mph NW17.7 kmh NW 17.0 mph27.4 kmh 29.87 in1011.5 mb 0.00 in0.0 mm 0.00 in0.0 mm 0.00 in0.0 mm
01:00 AM 51.4°F10.8°C 22.6°F-5.2°C 32% 9.0 mph NW14.5 kmh NW 17.0 mph27.4 kmh 29.87 in1011.5 mb 0.00 in0.0 mm 0.00 in0.0 mm 0.00 in0.0 mm
01:02 AM 51.4°F10.8°C 23.3°F-4.8°C 33% 15.0 mph WNW24.1 kmh WNW 17.0 mph27.4 kmh 29.87 in1011.5 mb 0.00 in0.0 mm 0.00 in0.0 mm 0.00 in0.0 mm
01:04 AM 51.3°F10.7°C 23.2°F-4.9°C 33% 18.0 mph WNW29.0 kmh WNW 18.0 mph29.0 kmh 29.87 in1011.5 mb 0.00 in0.0 mm 0.00 in0.0 mm 0.00 in0.0 mm
01:06 AM 51.3°F10.7°C 23.2°F-4.9°C 33% 11.0 mph W17.7 kmh W 18.0 mph29.0 kmh 29.87 in1011.5 mb 0.00 in0.0 mm 0.00 in0.0 mm 0.00 in0.0 mm
01:08 AM 51.3°F10.7°C 23.2°F-4.9°C 33% 20.0 mph NW32.2 kmh NW 20.0 mph32.2 kmh 29.88 in1011.9 mb 0.00 in0.0 mm 0.00 in0.0 mm 0.00 in0.0 mm
01:10 AM 51.3°F10.7°C 22.5°F-5.3°C 32% 13.0 mph NW20.9 kmh NW 20.0 mph32.2 kmh 29.88 in1011.9 mb 0.00 in0.0 mm 0.00 in0.0 mm 0.00 in0.0 mm
01:12 AM 51.4°F10.8°C 22.6°F-5.2°C 32% 18.0 mph NW29.0 kmh NW 20.0 mph32.2 kmh 29.88 in1011.9 mb 0.00 in0.0 mm 0.00 in0.0 mm 0.00 in0.0 mm
01:14 AM 51.4°F10.8°C 23.3°F-4.8°C 33% 13.0 mph NW20.9 kmh NW 20.0 mph32.2 kmh 29.88 in1011.9 mb 0.00 in0.0 mm 0.00 in0.0 mm 0.00 in0.0 mm
01:16 AM 51.3°F10.7°C 23.2°F-4.9°C 33% 14.0 mph WNW22.5 kmh WNW 20.0 mph32.2 kmh 29.88 in1011.9 mb 0.00 in0.0 mm 0.00 in0.0 mm 0.00 in0.0 mm
01:18 AM 51.3°F10.7°C 23.2°F-4.9°C 33% 12.0 mph NW19.3 kmh NW 20.0 mph32.2 kmh 29.88 in1011.9 mb 0.00 in0.0 mm 0.00 in0.0 mm 0.00 in0.0 mm
01:20 AM 51.3°F10.7°C 23.2°F-4.9°C 33% 14.0 mph NNW22.5 kmh NNW 25.0 mph40.2 kmh 29.88 in1011.9 mb 0.00 in0.0 mm 0.00 in0.0 mm 0.00 in0.0 mm
01:22 AM 51.2°F10.7°C 23.1°F-4.9°C 33% 17.0 mph NW27.4 kmh NW 25.0 mph40.2 kmh 29.88 in1011.9 mb 0.00 in0.0 mm 0.00 in0.0 mm 0.00 in0.0 mm
01:24 AM 51.2°F10.7°C 23.1°F-4.9°C 33% 15.0 mph NW24.1 kmh NW 25.0 mph40.2 kmh 29.88 in1011.9 mb 0.00 in0.0 mm 0.00 in0.0 mm 0.00 in0.0 mm
01:26 AM 51.1°F10.6°C 23.7°F-4.6°C 34% 15.0 mph NW24.1 kmh NW 25.0 mph40.2 kmh 29.88 in1011.9 mb 0.00 in0.0 mm 0.00 in0.0 mm 0.00 in0.0 mm
01:28 AM 51.0°F10.6°C 23.6°F-4.7°C 34% 12.0 mph NW19.3 kmh NW 25.0 mph40.2 kmh 29.88 in1011.9 mb 0.00 in0.0 mm 0.00 in0.0 mm 0.00 in0.0 mm
01:30 AM 51.0°F10.6°C 23.6°F-4.7°C 34% 10.0 mph NNW16.1 kmh NNW 25.0 mph40.2 kmh 29.88 in1011.9 mb 0.00 in0.0 mm 0.00 in0.0 mm 0.00 in0.0 mm
01:32 AM 50.9°F10.5°C 23.6°F-4.7°C 34% 13.0 mph WNW20.9 kmh WNW 25.0 mph40.2 kmh 29.88 in1011.9 mb 0.00 in0.0 mm 0.00 in0.0 mm 0.00 in0.0 mm
01:34 AM 50.8°F10.4°C 24.2°F-4.3°C 35% 15.0 mph NW24.1 kmh NW 20.0 mph32.2 kmh 29.88 in1011.9 mb 0.00 in0.0 mm 0.00 in0.0 mm 0.00 in0.0 mm
01:36 AM 50.7°F10.4°C 24.1°F-4.4°C 35% 16.0 mph NNW25.7 kmh NNW 20.0 mph32.2 kmh 29.88 in1011.9 mb 0.00 in0.0 mm 0.00 in0.0 mm 0.00 in0.0 mm
01:38 AM 50.6°F10.3°C 24.0°F-4.4°C 35% 11.0 mph NNW17.7 kmh NNW 21.0 mph33.8 kmh 29.88 in1011.9 mb 0.00 in0.0 mm 0.00 in0.0 mm 0.00 in0.0 mm
01:40 AM 50.5°F10.3°C 24.6°F-4.1°C 36% 11.0 mph NW17.7 kmh NW 21.0 mph33.8 kmh 29.88 in1011.9 mb 0.00 in0.0 mm 0.00 in0.0 mm 0.00 in0.0 mm
01:42 AM 50.4°F10.2°C 24.5°F-4.2°C 36% 8.0 mph NW12.9 kmh NW 21.0 mph33.8 kmh 29.88 in1011.9 mb 0.00 in0.0 mm 0.00 in0.0 mm 0.00 in0.0 mm
01:44 AM 50.2°F10.1°C 24.3°F-4.3°C 36% 15.0 mph WNW24.1 kmh WNW 21.0 mph33.8 kmh 29.89 in1012.2 mb 0.00 in0.0 mm 0.00 in0.0 mm 0.00 in0.0 mm
01:46 AM 50.2°F10.1°C 25.0°F-3.9°C 37% 12.0 mph NW19.3 kmh NW 21.0 mph33.8 kmh 29.89 in1012.2 mb 0.00 in0.0 mm 0.00 in0.0 mm 0.00 in0.0 mm
01:48 AM 50.1°F10.1°C 24.9°F-3.9°C 37% 16.0 mph NW25.7 kmh NW 21.0 mph33.8 kmh 29.89 in1012.2 mb 0.00 in0.0 mm 0.00 in0.0 mm 0.00 in0.0 mm
01:50 AM 50.0°F10.0°C 24.8°F-4.0°C 37% 10.0 mph NW16.1 kmh NW 21.0 mph33.8 kmh 29.89 in1012.2 mb 0.00 in0.0 mm 0.00 in0.0 mm 0.00 in0.0 mm
01:52 AM 50.0°F10.0°C 24.8°F-4.0°C 37% 11.0 mph NW17.7 kmh NW 21.0 mph33.8 kmh 29.89 in1012.2 mb 0.00 in0.0 mm 0.00 in0.0 mm 0.00 in0.0 mm
01:54 AM 49.8°F9.9°C 25.2°F-3.8°C 38% 11.0 mph NW17.7 kmh NW 21.0 mph33.8 kmh 29.89 in1012.2 mb 0.00 in0.0 mm 0.00 in0.0 mm 0.00 in0.0 mm
01:56 AM 49.7°F9.8°C 25.1°F-3.8°C 38% 9.0 mph NW14.5 kmh NW 21.0 mph33.8 kmh 29.90 in1012.5 mb 0.00 in0.0 mm 0.00 in0.0 mm 0.00 in0.0 mm
01:58 AM 49.6°F9.8°C 25.1°F-3.8°C 38% 8.0 mph NW12.9 kmh NW 21.0 mph33.8 kmh 29.90 in1012.5 mb 0.00 in0.0 mm 0.00 in0.0 mm 0.00 in0.0 mm
02:00 AM 49.5°F9.7°C 25.0°F-3.9°C 38% 8.0 mph NW12.9 kmh NW 21.0 mph33.8 kmh 29.90 in1012.5 mb 0.00 in0.0 mm 0.00 in0.0 mm 0.00 in0.0 mm
02:02 AM 49.4°F9.7°C 25.5°F-3.6°C 39% 10.0 mph NNW16.1 kmh NNW 21.0 mph33.8 kmh 29.90 in1012.5 mb 0.00 in0.0 mm 0.00 in0.0 mm 0.00 in0.0 mm
02:04 AM 49.3°F9.6°C 24.8°F-4.0°C 38% 11.0 mph NW17.7 kmh NW 19.0 mph30.6 kmh 29.90 in1012.5 mb 0.00 in0.0 mm 0.00 in0.0 mm 0.00 in0.0 mm
02:06 AM 49.2°F9.6°C 25.3°F-3.7°C 39% 11.0 mph NW17.7 kmh NW 19.0 mph30.6 kmh 29.90 in1012.5 mb 0.00 in0.0 mm 0.00 in0.0 mm 0.00 in0.0 mm
02:08 AM 49.1°F9.5°C 24.6°F-4.1°C 38% 8.0 mph NNW12.9 kmh NNW 19.0 mph30.6 kmh 29.90 in1012.5 mb 0.00 in0.0 mm 0.00 in0.0 mm 0.00 in0.0 mm
02:10 AM 49.0°F9.4°C 24.5°F-4.2°C 38% 11.0 mph NW17.7 kmh NW 19.0 mph30.6 kmh 29.90 in1012.5 mb 0.00 in0.0 mm 0.00 in0.0 mm 0.00 in0.0 mm
02:12 AM 48.9°F9.4°C 24.4°F-4.2°C 38% 9.0 mph NW14.5 kmh NW 19.0 mph30.6 kmh 29.90 in1012.5 mb 0.00 in0.0 mm 0.00 in0.0 mm 0.00 in0.0 mm
02:14 AM 48.9°F9.4°C 25.1°F-3.8°C 39% 9.0 mph NW14.5 kmh NW 19.0 mph30.6 kmh 29.91 in1012.9 mb 0.00 in0.0 mm 0.00 in0.0 mm 0.00 in0.0 mm
02:16 AM 48.8°F9.3°C 25.0°F-3.9°C 39% 8.0 mph WNW12.9 kmh WNW 19.0 mph30.6 kmh 29.91 in1012.9 mb 0.00 in0.0 mm 0.00 in0.0 mm 0.00 in0.0 mm
02:18 AM 48.7°F9.3°C 24.9°F-3.9°C 39% 8.0 mph NW12.9 kmh NW 19.0 mph30.6 kmh 29.91 in1012.9 mb 0.00 in0.0 mm 0.00 in0.0 mm 0.00 in0.0 mm
02:20 AM 48.6°F9.2°C 24.2°F-4.3°C 38% 11.0 mph NW17.7 kmh NW 19.0 mph30.6 kmh 29.91 in1012.9 mb 0.00 in0.0 mm 0.00 in0.0 mm 0.00 in0.0 mm
02:22 AM 48.5°F9.2°C 24.1°F-4.4°C 38% 9.0 mph NW14.5 kmh NW 19.0 mph30.6 kmh 29.91 in1012.9 mb 0.00 in0.0 mm 0.00 in0.0 mm 0.00 in0.0 mm
02:24 AM 48.5°F9.2°C 24.1°F-4.4°C 38% 8.0 mph NNW12.9 kmh NNW 19.0 mph30.6 kmh 29.91 in1012.9 mb 0.00 in0.0 mm 0.00 in0.0 mm 0.00 in0.0 mm
02:26 AM 48.4°F9.1°C 23.3°F-4.8°C 37% 9.0 mph NNW14.5 kmh NNW 19.0 mph30.6 kmh 29.91 in1012.9 mb 0.00 in0.0 mm 0.00 in0.0 mm 0.00 in0.0 mm
02:28 AM 48.4°F9.1°C 23.3°F-4.8°C 37% 10.0 mph N16.1 kmh N 19.0 mph30.6 kmh 29.91 in1012.9 mb 0.00 in0.0 mm 0.00 in0.0 mm 0.00 in0.0 mm
02:30 AM 48.3°F9.1°C 23.3°F-4.8°C 37% 9.0 mph NNW14.5 kmh NNW 19.0 mph30.6 kmh 29.91 in1012.9 mb 0.00 in0.0 mm 0.00 in0.0 mm 0.00 in0.0 mm
02:32 AM 48.3°F9.1°C 23.3°F-4.8°C 37% 8.0 mph NW12.9 kmh NW 19.0 mph30.6 kmh 29.91 in1012.9 mb 0.00 in0.0 mm 0.00 in0.0 mm 0.00 in0.0 mm
02:34 AM 48.3°F9.1°C 23.3°F-4.8°C 37% 6.0 mph NNW9.7 kmh NNW 10.0 mph16.1 kmh 29.92 in1013.2 mb 0.00 in0.0 mm 0.00 in0.0 mm 0.00 in0.0 mm
02:36 AM 48.2°F9.0°C 23.2°F-4.9°C 37% 3.0 mph NW4.8 kmh NW 10.0 mph16.1 kmh 29.91 in1012.9 mb 0.00 in0.0 mm 0.00 in0.0 mm 0.00 in0.0 mm
02:38 AM 48.1°F8.9°C 23.1°F-4.9°C 37% 10.0 mph NW16.1 kmh NW 10.0 mph16.1 kmh 29.92 in1013.2 mb 0.00 in0.0 mm 0.00 in0.0 mm 0.00 in0.0 mm
02:40 AM 48.0°F8.9°C 23.0°F-5.0°C 37% 8.0 mph NW12.9 kmh NW 10.0 mph16.1 kmh 29.92 in1013.2 mb 0.00 in0.0 mm 0.00 in0.0 mm 0.00 in0.0 mm
02:42 AM 47.9°F8.8°C 22.9°F-5.1°C 37% 9.0 mph NW14.5 kmh NW 13.0 mph20.9 kmh 29.92 in1013.2 mb 0.00 in0.0 mm 0.00 in0.0 mm 0.00 in0.0 mm
02:44 AM 47.9°F8.8°C 22.9°F-5.1°C 37% 9.0 mph WNW14.5 kmh WNW 13.0 mph20.9 kmh 29.92 in1013.2 mb 0.00 in0.0 mm 0.00 in0.0 mm 0.00 in0.0 mm
02:46 AM 47.9°F8.8°C 23.5°F-4.7°C 38% 6.0 mph NW9.7 kmh NW 13.0 mph20.9 kmh 29.92 in1013.2 mb 0.00 in0.0 mm 0.00 in0.0 mm 0.00 in0.0 mm
02:48 AM 47.7°F8.7°C 23.4°F-4.8°C 38% 9.0 mph NW14.5 kmh NW 13.0 mph20.9 kmh 29.92 in1013.2 mb 0.00 in0.0 mm 0.00 in0.0 mm 0.00 in0.0 mm
02:50 AM 47.7°F8.7°C 23.4°F-4.8°C 38% 10.0 mph NW16.1 kmh NW 13.0 mph20.9 kmh 29.92 in1013.2 mb 0.00 in0.0 mm 0.00 in0.0 mm 0.00 in0.0 mm
02:52 AM 47.5°F8.6°C 23.2°F-4.9°C 38% 12.0 mph NW19.3 kmh NW 16.0 mph25.7 kmh 29.92 in1013.2 mb 0.00 in0.0 mm 0.00 in0.0 mm 0.00 in0.0 mm
02:54 AM 47.6°F8.7°C 23.3°F-4.8°C 38% 12.0 mph NW19.3 kmh NW 16.0 mph25.7 kmh 29.92 in1013.2 mb 0.00 in0.0 mm 0.00 in0.0 mm 0.00 in0.0 mm
02:56 AM 47.5°F8.6°C 23.2°F-4.9°C 38% 7.0 mph NW11.3 kmh NW 16.0 mph25.7 kmh 29.92 in1013.2 mb 0.00 in0.0 mm 0.00 in0.0 mm 0.00 in0.0 mm
02:58 AM 47.4°F8.6°C 23.1°F-4.9°C 38% 8.0 mph NW12.9 kmh NW 16.0 mph25.7 kmh 29.92 in1013.2 mb 0.00 in0.0 mm 0.00 in0.0 mm 0.00 in0.0 mm
03:00 AM 47.3°F8.5°C 23.0°F-5.0°C 38% 13.0 mph NW20.9 kmh NW 16.0 mph25.7 kmh 29.92 in1013.2 mb 0.00 in0.0 mm 0.00 in0.0 mm 0.00 in0.0 mm
03:02 AM 47.3°F8.5°C 23.0°F-5.0°C 38% 4.0 mph NW6.4 kmh NW 16.0 mph25.7 kmh 29.92 in1013.2 mb 0.00 in0.0 mm 0.00 in0.0 mm 0.00 in0.0 mm
03:04 AM 47.2°F8.4°C 22.9°F-5.1°C 38% 11.0 mph NW17.7 kmh NW 12.0 mph19.3 kmh 29.92 in1013.2 mb 0.00 in0.0 mm 0.00 in0.0 mm 0.00 in0.0 mm
03:06 AM 47.1°F8.4°C 22.8°F-5.1°C 38% 10.0 mph NNW16.1 kmh NNW 12.0 mph19.3 kmh 29.92 in1013.2 mb 0.00 in0.0 mm 0.00 in0.0 mm 0.00 in0.0 mm
03:08 AM 47.1°F8.4°C 22.8°F-5.1°C 38% 9.0 mph NW14.5 kmh NW 12.0 mph19.3 kmh 29.93 in1013.5 mb 0.00 in0.0 mm 0.00 in0.0 mm 0.00 in0.0 mm
03:10 AM 47.1°F8.4°C 22.8°F-5.1°C 38% 8.0 mph NW12.9 kmh NW 13.0 mph20.9 kmh 29.93 in1013.5 mb 0.00 in0.0 mm 0.00 in0.0 mm 0.00 in0.0 mm
03:12 AM 47.1°F8.4°C 22.8°F-5.1°C 38% 5.0 mph NW8.0 kmh NW 13.0 mph20.9 kmh 29.93 in1013.5 mb 0.00 in0.0 mm 0.00 in0.0 mm 0.00 in0.0 mm
03:14 AM 47.0°F8.3°C 22.7°F-5.2°C 38% 6.0 mph NW9.7 kmh NW 13.0 mph20.9 kmh 29.93 in1013.5 mb 0.00 in0.0 mm 0.00 in0.0 mm 0.00 in0.0 mm
03:16 AM 47.0°F8.3°C 22.7°F-5.2°C 38% 8.0 mph NW12.9 kmh NW 13.0 mph20.9 kmh 29.93 in1013.5 mb 0.00 in0.0 mm 0.00 in0.0 mm 0.00 in0.0 mm
03:18 AM 46.9°F8.3°C 22.6°F-5.2°C 38% 6.0 mph NW9.7 kmh NW 13.0 mph20.9 kmh 29.93 in1013.5 mb 0.00 in0.0 mm 0.00 in0.0 mm 0.00 in0.0 mm
03:20 AM 46.9°F8.3°C 22.6°F-5.2°C 38% 8.0 mph NW12.9 kmh NW 15.0 mph24.1 kmh 29.93 in1013.5 mb 0.00 in0.0 mm 0.00 in0.0 mm 0.00 in0.0 mm
03:22 AM 46.8°F8.2°C 22.6°F-5.2°C 38% 10.0 mph NW16.1 kmh NW 15.0 mph24.1 kmh 29.93 in1013.5 mb 0.00 in0.0 mm 0.00 in0.0 mm 0.00 in0.0 mm
03:24 AM 46.8°F8.2°C 22.6°F-5.2°C 38% 5.0 mph NW8.0 kmh NW 15.0 mph24.1 kmh 29.93 in1013.5 mb 0.00 in0.0 mm 0.00 in0.0 mm 0.00 in0.0 mm
03:26 AM 46.7°F8.2°C 22.5°F-5.3°C 38% 6.0 mph NW9.7 kmh NW 15.0 mph24.1 kmh 29.93 in1013.5 mb 0.00 in0.0 mm 0.00 in0.0 mm 0.00 in0.0 mm
03:28 AM 46.6°F8.1°C 22.4°F-5.3°C 38% 9.0 mph NNW14.5 kmh NNW 15.0 mph24.1 kmh 29.93 in1013.5 mb 0.00 in0.0 mm 0.00 in0.0 mm 0.00 in0.0 mm
03:30 AM 46.4°F8.0°C 22.2°F-5.4°C 38% 9.0 mph NNW14.5 kmh NNW 15.0 mph24.1 kmh 29.94 in1013.9 mb 0.00 in0.0 mm 0.00 in0.0 mm 0.00 in0.0 mm
03:32 AM 46.4°F8.0°C 22.2°F-5.4°C 38% 11.0 mph NW17.7 kmh NW 15.0 mph24.1 kmh 29.94 in1013.9 mb 0.00 in0.0 mm 0.00 in0.0 mm 0.00 in0.0 mm
03:34 AM 46.4°F8.0°C 22.2°F-5.4°C 38% 10.0 mph NW16.1 kmh NW 15.0 mph24.1 kmh 29.94 in1013.9 mb 0.00 in0.0 mm 0.00 in0.0 mm 0.00 in0.0 mm
03:36 AM 46.4°F8.0°C 22.2°F-5.4°C 38% 8.0 mph NW12.9 kmh NW 15.0 mph24.1 kmh 29.94 in1013.9 mb 0.00 in0.0 mm 0.00 in0.0 mm 0.00 in0.0 mm
03:38 AM 46.3°F7.9°C 22.7°F-5.2°C 39% 11.0 mph NW17.7 kmh NW 15.0 mph24.1 kmh 29.94 in1013.9 mb 0.00 in0.0 mm 0.00 in0.0 mm 0.00 in0.0 mm
03:40 AM 46.2°F7.9°C 22.0°F-5.6°C 38% 8.0 mph NW12.9 kmh NW 15.0 mph24.1 kmh 29.94 in1013.9 mb 0.00 in0.0 mm 0.00 in0.0 mm 0.00 in0.0 mm
03:42 AM 46.1°F7.8°C 21.9°F-5.6°C 38% 8.0 mph WNW12.9 kmh WNW 15.0 mph24.1 kmh 29.94 in1013.9 mb 0.00 in0.0 mm 0.00 in0.0 mm 0.00 in0.0 mm
03:44 AM 46.1°F7.8°C 21.9°F-5.6°C 38% 5.0 mph N8.0 kmh N 15.0 mph24.1 kmh 29.94 in1013.9 mb 0.00 in0.0 mm 0.00 in0.0 mm 0.00 in0.0 mm
03:46 AM 46.1°F7.8°C 21.9°F-5.6°C 38% 11.0 mph NW17.7 kmh NW 15.0 mph24.1 kmh 29.94 in1013.9 mb 0.00 in0.0 mm 0.00 in0.0 mm 0.00 in0.0 mm
03:47 AM 46.0°F7.8°C 21.8°F-5.7°C 38% 11.0 mph NW17.7 kmh NW 15.0 mph24.1 kmh 29.94 in1013.9 mb 0.00 in0.0 mm 0.00 in0.0 mm 0.00 in0.0 mm
03:50 AM 46.0°F7.8°C 22.5°F-5.3°C 39% 16.0 mph NNW25.7 kmh NNW 16.0 mph25.7 kmh 29.94 in1013.9 mb 0.00 in0.0 mm 0.00 in0.0 mm 0.00 in0.0 mm
03:52 AM 45.9°F7.7°C 21.7°F-5.7°C 38% 7.0 mph WNW11.3 kmh WNW 17.0 mph27.4 kmh 29.94 in1013.9 mb 0.00 in0.0 mm 0.00 in0.0 mm 0.00 in0.0 mm
03:54 AM 45.9°F7.7°C 22.4°F-5.3°C 39% 11.0 mph NNW17.7 kmh NNW 17.0 mph27.4 kmh 29.95 in1014.2 mb 0.00 in0.0 mm 0.00 in0.0 mm 0.00 in0.0 mm
03:56 AM 45.9°F7.7°C 22.4°F-5.3°C 39% 11.0 mph NNW17.7 kmh NNW 17.0 mph27.4 kmh 29.94 in1013.9 mb 0.00 in0.0 mm 0.00 in0.0 mm 0.00 in0.0 mm
03:58 AM 45.8°F7.7°C 22.3°F-5.4°C 39% 10.0 mph NNW16.1 kmh NNW 17.0 mph27.4 kmh 29.95 in1014.2 mb 0.00 in0.0 mm 0.00 in0.0 mm 0.00 in0.0 mm
04:00 AM 45.7°F7.6°C 22.2°F-5.4°C 39% 11.0 mph NW17.7 kmh NW 17.0 mph27.4 kmh 29.95 in1014.2 mb 0.00 in0.0 mm 0.00 in0.0 mm 0.00 in0.0 mm
04:02 AM 45.6°F7.6°C 22.1°F-5.5°C 39% 7.0 mph NW11.3 kmh NW 17.0 mph27.4 kmh 29.95 in1014.2 mb 0.00 in0.0 mm 0.00 in0.0 mm 0.00 in0.0 mm
04:04 AM 45.6°F7.6°C 22.7°F-5.2°C 40% 5.0 mph NW8.0 kmh NW 11.0 mph17.7 kmh 29.95 in1014.2 mb 0.00 in0.0 mm 0.00 in0.0 mm 0.00 in0.0 mm
04:06 AM 45.5°F7.5°C 22.6°F-5.2°C 40% 9.0 mph NW14.5 kmh NW 11.0 mph17.7 kmh 29.95 in1014.2 mb 0.00 in0.0 mm 0.00 in0.0 mm 0.00 in0.0 mm
04:08 AM 45.4°F7.4°C 22.5°F-5.3°C 40% 8.0 mph NW12.9 kmh NW 12.0 mph19.3 kmh 29.95 in1014.2 mb 0.00 in0.0 mm 0.00 in0.0 mm 0.00 in0.0 mm
04:10 AM 45.3°F7.4°C 22.4°F-5.3°C 40% 9.0 mph NW14.5 kmh NW 13.0 mph20.9 kmh 29.95 in1014.2 mb 0.00 in0.0 mm 0.00 in0.0 mm 0.00 in0.0 mm
04:12 AM 45.3°F7.4°C 22.4°F-5.3°C 40% 11.0 mph N17.7 kmh N 13.0 mph20.9 kmh 29.95 in1014.2 mb 0.00 in0.0 mm 0.00 in0.0 mm 0.00 in0.0 mm
04:14 AM 45.2°F7.3°C 22.3°F-5.4°C 40% 9.0 mph WNW14.5 kmh WNW 13.0 mph20.9 kmh 29.95 in1014.2 mb 0.00 in0.0 mm 0.00 in0.0 mm 0.00 in0.0 mm
04:16 AM 45.1°F7.3°C 22.2°F-5.4°C 40% 12.0 mph NW19.3 kmh NW 13.0 mph20.9 kmh 29.95 in1014.2 mb 0.00 in0.0 mm 0.00 in0.0 mm 0.00 in0.0 mm
04:18 AM 45.0°F7.2°C 22.2°F-5.4°C 40% 12.0 mph NW19.3 kmh NW 15.0 mph24.1 kmh 29.95 in1014.2 mb 0.00 in0.0 mm 0.00 in0.0 mm 0.00 in0.0 mm
04:20 AM 45.0°F7.2°C 22.2°F-5.4°C 40% 8.0 mph NW12.9 kmh NW 15.0 mph24.1 kmh 29.95 in1014.2 mb 0.00 in0.0 mm 0.00 in0.0 mm 0.00 in0.0 mm
04:22 AM 44.8°F7.1°C 22.6°F-5.2°C 41% 8.0 mph NW12.9 kmh NW 15.0 mph24.1 kmh 29.95 in1014.2 mb 0.00 in0.0 mm 0.00 in0.0 mm 0.00 in0.0 mm
04:24 AM 44.8°F7.1°C 22.0°F-5.6°C 40% 7.0 mph WNW11.3 kmh WNW 17.0 mph27.4 kmh 29.96 in1014.6 mb 0.00 in0.0 mm 0.00 in0.0 mm 0.00 in0.0 mm
04:26 AM 44.7°F7.1°C 21.9°F-5.6°C 40% 13.0 mph NW20.9 kmh NW 17.0 mph27.4 kmh 29.95 in1014.2 mb 0.00 in0.0 mm 0.00 in0.0 mm 0.00 in0.0 mm
04:28 AM 44.6°F7.0°C 22.4°F-5.3°C 41% 14.0 mph NW22.5 kmh NW 17.0 mph27.4 kmh 29.96 in1014.6 mb 0.00 in0.0 mm 0.00 in0.0 mm 0.00 in0.0 mm
04:30 AM 44.6°F7.0°C 21.8°F-5.7°C 40% 10.0 mph NW16.1 kmh NW 17.0 mph27.4 kmh 29.96 in1014.6 mb 0.00 in0.0 mm 0.00 in0.0 mm 0.00 in0.0 mm
04:32 AM 44.6°F7.0°C 21.8°F-5.7°C 40% 4.0 mph NW6.4 kmh NW 17.0 mph27.4 kmh 29.96 in1014.6 mb 0.00 in0.0 mm 0.00 in0.0 mm 0.00 in0.0 mm
04:34 AM 44.6°F7.0°C 21.8°F-5.7°C 40% 8.0 mph NNW12.9 kmh NNW 16.0 mph25.7 kmh 29.96 in1014.6 mb 0.00 in0.0 mm 0.00 in0.0 mm 0.00 in0.0 mm
04:36 AM 44.5°F6.9°C 21.7°F-5.7°C 40% 14.0 mph NW22.5 kmh NW 16.0 mph25.7 kmh 29.96 in1014.6 mb 0.00 in0.0 mm 0.00 in0.0 mm 0.00 in0.0 mm
04:38 AM 44.5°F6.9°C 21.7°F-5.7°C 40% 8.0 mph NW12.9 kmh NW 16.0 mph25.7 kmh 29.96 in1014.6 mb 0.00 in0.0 mm 0.00 in0.0 mm 0.00 in0.0 mm
04:40 AM 44.4°F6.9°C 21.6°F-5.8°C 40% 8.0 mph NNW12.9 kmh NNW 16.0 mph25.7 kmh 29.96 in1014.6 mb 0.00 in0.0 mm 0.00 in0.0 mm 0.00 in0.0 mm
04:42 AM 44.4°F6.9°C 21.6°F-5.8°C 40% 8.0 mph NW12.9 kmh NW 16.0 mph25.7 kmh 29.97 in1014.9 mb 0.00 in0.0 mm 0.00 in0.0 mm 0.00 in0.0 mm
04:44 AM 44.4°F6.9°C 21.0°F-6.1°C 39% 13.0 mph NW20.9 kmh NW 16.0 mph25.7 kmh 29.97 in1014.9 mb 0.00 in0.0 mm 0.00 in0.0 mm 0.00 in0.0 mm
04:46 AM 44.4°F6.9°C 21.0°F-6.1°C 39% 12.0 mph NNW19.3 kmh NNW 17.0 mph27.4 kmh 29.97 in1014.9 mb 0.00 in0.0 mm 0.00 in0.0 mm 0.00 in0.0 mm
04:48 AM 44.4°F6.9°C 21.0°F-6.1°C 39% 9.0 mph NW14.5 kmh NW 17.0 mph27.4 kmh 29.97 in1014.9 mb 0.00 in0.0 mm 0.00 in0.0 mm 0.00 in0.0 mm
04:50 AM 44.4°F6.9°C 21.0°F-6.1°C 39% 14.0 mph NW22.5 kmh NW 17.0 mph27.4 kmh 29.97 in1014.9 mb 0.00 in0.0 mm 0.00 in0.0 mm 0.00 in0.0 mm
04:52 AM 44.3°F6.8°C 20.9°F-6.2°C 39% 14.0 mph NNW22.5 kmh NNW 17.0 mph27.4 kmh 29.97 in1014.9 mb 0.00 in0.0 mm 0.00 in0.0 mm 0.00 in0.0 mm
04:54 AM 44.2°F6.8°C 20.8°F-6.2°C 39% 10.0 mph NW16.1 kmh NW 17.0 mph27.4 kmh 29.97 in1014.9 mb 0.00 in0.0 mm 0.00 in0.0 mm 0.00 in0.0 mm
04:56 AM 44.2°F6.8°C 21.4°F-5.9°C 40% 11.0 mph NW17.7 kmh NW 17.0 mph27.4 kmh 29.97 in1014.9 mb 0.00 in0.0 mm 0.00 in0.0 mm 0.00 in0.0 mm
04:58 AM 44.1°F6.7°C 21.3°F-5.9°C 40% 5.0 mph NW8.0 kmh NW 17.0 mph27.4 kmh 29.97 in1014.9 mb 0.00 in0.0 mm 0.00 in0.0 mm 0.00 in0.0 mm
05:00 AM 44.1°F6.7°C 21.3°F-5.9°C 40% 9.0 mph N14.5 kmh N 17.0 mph27.4 kmh 29.98 in1015.2 mb 0.00 in0.0 mm 0.00 in0.0 mm 0.00 in0.0 mm
05:02 AM 44.0°F6.7°C 21.3°F-5.9°C 40% 5.0 mph NW8.0 kmh NW 17.0 mph27.4 kmh 29.97 in1014.9 mb 0.00 in0.0 mm 0.00 in0.0 mm 0.00 in0.0 mm
05:04 AM 43.9°F6.6°C 21.7°F-5.7°C 41% 6.0 mph NNW9.7 kmh NNW 12.0 mph19.3 kmh 29.98 in1015.2 mb 0.00 in0.0 mm 0.00 in0.0 mm 0.00 in0.0 mm
05:06 AM 43.8°F6.6°C 21.7°F-5.7°C 41% 5.0 mph NW8.0 kmh NW 12.0 mph19.3 kmh 29.98 in1015.2 mb 0.00 in0.0 mm 0.00 in0.0 mm 0.00 in0.0 mm
05:08 AM 43.7°F6.5°C 21.6°F-5.8°C 41% 11.0 mph NW17.7 kmh NW 12.0 mph19.3 kmh 29.98 in1015.2 mb 0.00 in0.0 mm 0.00 in0.0 mm 0.00 in0.0 mm
05:10 AM 43.7°F6.5°C 22.1°F-5.5°C 42% 9.0 mph NW14.5 kmh NW 12.0 mph19.3 kmh 29.98 in1015.2 mb 0.00 in0.0 mm 0.00 in0.0 mm 0.00 in0.0 mm
05:12 AM 43.5°F6.4°C 22.0°F-5.6°C 42% 5.0 mph NW8.0 kmh NW 12.0 mph19.3 kmh 29.98 in1015.2 mb 0.00 in0.0 mm 0.00 in0.0 mm 0.00 in0.0 mm
05:14 AM 43.5°F6.4°C 22.5°F-5.3°C 43% 4.0 mph NW6.4 kmh NW 12.0 mph19.3 kmh 29.98 in1015.2 mb 0.00 in0.0 mm 0.00 in0.0 mm 0.00 in0.0 mm
05:16 AM 43.3°F6.3°C 22.3°F-5.4°C 43% 9.0 mph NNW14.5 kmh NNW 12.0 mph19.3 kmh 29.98 in1015.2 mb 0.00 in0.0 mm 0.00 in0.0 mm 0.00 in0.0 mm
05:18 AM 43.2°F6.2°C 22.2°F-5.4°C 43% 6.0 mph NW9.7 kmh NW 12.0 mph19.3 kmh 29.98 in1015.2 mb 0.00 in0.0 mm 0.00 in0.0 mm 0.00 in0.0 mm
05:20 AM 43.1°F6.2°C 22.1°F-5.5°C 43% 12.0 mph NW19.3 kmh NW 12.0 mph19.3 kmh 29.98 in1015.2 mb 0.00 in0.0 mm 0.00 in0.0 mm 0.00 in0.0 mm
05:22 AM 43.0°F6.1°C 22.1°F-5.5°C 43% 6.0 mph N9.7 kmh N 12.0 mph19.3 kmh 29.98 in1015.2 mb 0.00 in0.0 mm 0.00 in0.0 mm 0.00 in0.0 mm
05:24 AM 43.0°F6.1°C 22.1°F-5.5°C 43% 5.0 mph NW8.0 kmh NW 12.0 mph19.3 kmh 29.98 in1015.2 mb 0.00 in0.0 mm 0.00 in0.0 mm 0.00 in0.0 mm
05:26 AM 43.0°F6.1°C 22.1°F-5.5°C 43% 9.0 mph NNW14.5 kmh NNW 12.0 mph19.3 kmh 29.99 in1015.6 mb 0.00 in0.0 mm 0.00 in0.0 mm 0.00 in0.0 mm
05:28 AM 43.0°F6.1°C 22.6°F-5.2°C 44% 8.0 mph NW12.9 kmh NW 12.0 mph19.3 kmh 29.99 in1015.6 mb 0.00 in0.0 mm 0.00 in0.0 mm 0.00 in0.0 mm
05:30 AM 42.9°F6.1°C 22.0°F-5.6°C 43% 4.0 mph NW6.4 kmh NW 12.0 mph19.3 kmh 29.99 in1015.6 mb 0.00 in0.0 mm 0.00 in0.0 mm 0.00 in0.0 mm
05:32 AM 42.9°F6.1°C 22.0°F-5.6°C 43% 8.0 mph NNW12.9 kmh NNW 12.0 mph19.3 kmh 29.99 in1015.6 mb 0.00 in0.0 mm 0.00 in0.0 mm 0.00 in0.0 mm
05:34 AM 42.8°F6.0°C 21.9°F-5.6°C 43% 8.0 mph WNW12.9 kmh WNW 12.0 mph19.3 kmh 29.98 in1015.2 mb 0.00 in0.0 mm 0.00 in0.0 mm 0.00 in0.0 mm
05:36 AM 42.8°F6.0°C 21.9°F-5.6°C 43% 7.0 mph WNW11.3 kmh WNW 12.0 mph19.3 kmh 29.99 in1015.6 mb 0.00 in0.0 mm 0.00 in0.0 mm 0.00 in0.0 mm
05:38 AM 42.7°F5.9°C 21.8°F-5.7°C 43% 11.0 mph NNW17.7 kmh NNW 13.0 mph20.9 kmh 29.99 in1015.6 mb 0.00 in0.0 mm 0.00 in0.0 mm 0.00 in0.0 mm
05:40 AM 42.8°F6.0°C 21.9°F-5.6°C 43% 10.0 mph WNW16.1 kmh WNW 17.0 mph27.4 kmh 29.99 in1015.6 mb 0.00 in0.0 mm 0.00 in0.0 mm 0.00 in0.0 mm
05:42 AM 42.7°F5.9°C 21.8°F-5.7°C 43% 14.0 mph NNW22.5 kmh NNW 17.0 mph27.4 kmh 29.99 in1015.6 mb 0.00 in0.0 mm 0.00 in0.0 mm 0.00 in0.0 mm
05:44 AM 42.7°F5.9°C 21.8°F-5.7°C 43% 11.0 mph NW17.7 kmh NW 17.0 mph27.4 kmh 29.99 in1015.6 mb 0.00 in0.0 mm 0.00 in0.0 mm 0.00 in0.0 mm
05:46 AM 42.7°F5.9°C 21.8°F-5.7°C 43% 8.0 mph NW12.9 kmh NW 17.0 mph27.4 kmh 29.99 in1015.6 mb 0.00 in0.0 mm 0.00 in0.0 mm 0.00 in0.0 mm
05:48 AM 42.6°F5.9°C 21.7°F-5.7°C 43% 5.0 mph NW8.0 kmh NW 17.0 mph27.4 kmh 29.99 in1015.6 mb 0.00 in0.0 mm 0.00 in0.0 mm 0.00 in0.0 mm
05:50 AM 42.6°F5.9°C 21.7°F-5.7°C 43% 9.0 mph NW14.5 kmh NW 17.0 mph27.4 kmh 30.00 in1015.9 mb 0.00 in0.0 mm 0.00 in0.0 mm 0.00 in0.0 mm
05:52 AM 42.5°F5.8°C 21.6°F-5.8°C 43% 11.0 mph NW17.7 kmh NW 17.0 mph27.4 kmh 30.00 in1015.9 mb 0.00 in0.0 mm 0.00 in0.0 mm 0.00 in0.0 mm
05:54 AM 42.4°F5.8°C 21.5°F-5.8°C 43% 6.0 mph NW9.7 kmh NW 17.0 mph27.4 kmh 30.00 in1015.9 mb 0.00 in0.0 mm 0.00 in0.0 mm 0.00 in0.0 mm
05:56 AM 42.4°F5.8°C 21.5°F-5.8°C 43% 10.0 mph NW16.1 kmh NW 17.0 mph27.4 kmh 30.00 in1015.9 mb 0.00 in0.0 mm 0.00 in0.0 mm 0.00 in0.0 mm
05:58 AM 42.4°F5.8°C 21.5°F-5.8°C 43% 5.0 mph NW8.0 kmh NW 17.0 mph27.4 kmh 30.00 in1015.9 mb 0.00 in0.0 mm 0.00 in0.0 mm 0.00 in0.0 mm
06:00 AM 42.3°F5.7°C 21.4°F-5.9°C 43% 8.0 mph NW12.9 kmh NW 17.0 mph27.4 kmh 30.00 in1015.9 mb 0.00 in0.0 mm 0.00 in0.0 mm 0.00 in0.0 mm
06:02 AM 42.4°F5.8°C 21.5°F-5.8°C 43% 8.0 mph NNW12.9 kmh NNW 17.0 mph27.4 kmh 30.00 in1015.9 mb 0.00 in0.0 mm 0.00 in0.0 mm 0.00 in0.0 mm
06:04 AM 42.4°F5.8°C 21.0°F-6.1°C 42% 8.0 mph NW12.9 kmh NW 12.0 mph19.3 kmh 30.00 in1015.9 mb 0.00 in0.0 mm 0.00 in0.0 mm 0.00 in0.0 mm
06:06 AM 42.4°F5.8°C 21.0°F-6.1°C 42% 10.0 mph NW16.1 kmh NW 12.0 mph19.3 kmh 30.00 in1015.9 mb 0.00 in0.0 mm 0.00 in0.0 mm 0.00 in0.0 mm
06:08 AM 42.4°F5.8°C 21.0°F-6.1°C 42% 4.0 mph NW6.4 kmh NW 12.0 mph19.3 kmh 30.00 in1015.9 mb 0.00 in0.0 mm 0.00 in0.0 mm 0.00 in0.0 mm
06:10 AM 42.3°F5.7°C 21.4°F-5.9°C 43% 12.0 mph NW19.3 kmh NW 12.0 mph19.3 kmh 30.01 in1016.3 mb 0.00 in0.0 mm 0.00 in0.0 mm 0.00 in0.0 mm
06:12 AM 42.3°F5.7°C 20.9°F-6.2°C 42% 5.0 mph WNW8.0 kmh WNW 12.0 mph19.3 kmh 30.01 in1016.3 mb 0.00 in0.0 mm 0.00 in0.0 mm 0.00 in0.0 mm
06:14 AM 42.3°F5.7°C 21.4°F-5.9°C 43% 8.0 mph NW12.9 kmh NW 12.0 mph19.3 kmh 30.01 in1016.3 mb 0.00 in0.0 mm 0.00 in0.0 mm 0.00 in0.0 mm
06:16 AM 42.2°F5.7°C 21.3°F-5.9°C 43% 6.0 mph NW9.7 kmh NW 12.0 mph19.3 kmh 30.01 in1016.3 mb 0.00 in0.0 mm 0.00 in0.0 mm 0.00 in0.0 mm
06:18 AM 42.2°F5.7°C 21.3°F-5.9°C 43% 8.0 mph NW12.9 kmh NW 12.0 mph19.3 kmh 30.01 in1016.3 mb 0.00 in0.0 mm 0.00 in0.0 mm 0.00 in0.0 mm
06:20 AM 42.1°F5.6°C 21.2°F-6.0°C 43% 4.0 mph NW6.4 kmh NW 12.0 mph19.3 kmh 30.01 in1016.3 mb 0.00 in0.0 mm 0.00 in0.0 mm 0.00 in0.0 mm
06:22 AM 42.1°F5.6°C 21.2°F-6.0°C 43% 8.0 mph WNW12.9 kmh WNW 12.0 mph19.3 kmh 30.01 in1016.3 mb 0.00 in0.0 mm 0.00 in0.0 mm 0.00 in0.0 mm
06:24 AM 42.1°F5.6°C 21.2°F-6.0°C 43% 8.0 mph W12.9 kmh W 12.0 mph19.3 kmh 30.01 in1016.3 mb 0.00 in0.0 mm 0.00 in0.0 mm 0.00 in0.0 mm
06:26 AM 42.1°F5.6°C 21.2°F-6.0°C 43% 5.0 mph NW8.0 kmh NW 12.0 mph19.3 kmh 30.01 in1016.3 mb 0.00 in0.0 mm 0.00 in0.0 mm 0.00 in0.0 mm
06:28 AM 41.9°F5.5°C 21.1°F-6.1°C 43% 5.0 mph WNW8.0 kmh WNW 12.0 mph19.3 kmh 30.01 in1016.3 mb 0.00 in0.0 mm 0.00 in0.0 mm 0.00 in0.0 mm
06:30 AM 42.0°F5.6°C 21.1°F-6.1°C 43% 4.0 mph WNW6.4 kmh WNW 12.0 mph19.3 kmh 30.02 in1016.6 mb 0.00 in0.0 mm 0.00 in0.0 mm 0.00 in0.0 mm
06:32 AM 41.9°F5.5°C 21.1°F-6.1°C 43% 8.0 mph WNW12.9 kmh WNW 12.0 mph19.3 kmh 30.02 in1016.6 mb 0.00 in0.0 mm 0.00 in0.0 mm 0.00 in0.0 mm
06:34 AM 42.0°F5.6°C 21.1°F-6.1°C 43% 4.0 mph WNW6.4 kmh WNW 7.0 mph11.3 kmh 30.02 in1016.6 mb 0.00 in0.0 mm 0.00 in0.0 mm 0.00 in0.0 mm
06:36 AM 41.9°F5.5°C 21.1°F-6.1°C 43% 5.0 mph NW8.0 kmh NW 7.0 mph11.3 kmh 30.03 in1016.9 mb 0.00 in0.0 mm 0.00 in0.0 mm 0.00 in0.0 mm
06:38 AM 41.8°F5.4°C 21.0°F-6.1°C 43% 3.0 mph WNW4.8 kmh WNW 7.0 mph11.3 kmh 30.03 in1016.9 mb 0.00 in0.0 mm 0.00 in0.0 mm 0.00 in0.0 mm
06:40 AM 41.7°F5.4°C 20.9°F-6.2°C 43% 5.0 mph NW8.0 kmh NW 9.0 mph14.5 kmh 30.02 in1016.6 mb 0.00 in0.0 mm 0.00 in0.0 mm 0.00 in0.0 mm
06:42 AM 41.6°F5.3°C 21.3°F-5.9°C 44% 6.0 mph WNW9.7 kmh WNW 9.0 mph14.5 kmh 30.03 in1016.9 mb 0.00 in0.0 mm 0.00 in0.0 mm 0.00 in0.0 mm
06:44 AM 41.6°F5.3°C 21.3°F-5.9°C 44% 7.0 mph WNW11.3 kmh WNW 9.0 mph14.5 kmh 30.03 in1016.9 mb 0.00 in0.0 mm 0.00 in0.0 mm 0.00 in0.0 mm
06:46 AM 41.5°F5.3°C 21.2°F-6.0°C 44% 8.0 mph WNW12.9 kmh WNW 9.0 mph14.5 kmh 30.03 in1016.9 mb 0.00 in0.0 mm 0.00 in0.0 mm 0.00 in0.0 mm
06:48 AM 41.4°F5.2°C 21.1°F-6.1°C 44% 7.0 mph WNW11.3 kmh WNW 10.0 mph16.1 kmh 30.03 in1016.9 mb 0.00 in0.0 mm 0.00 in0.0 mm 0.00 in0.0 mm
06:50 AM 41.3°F5.2°C 21.6°F-5.8°C 45% 5.0 mph WSW8.0 kmh WSW 10.0 mph16.1 kmh 30.03 in1016.9 mb 0.00 in0.0 mm 0.00 in0.0 mm 0.00 in0.0 mm
06:52 AM 41.2°F5.1°C 21.5°F-5.8°C 45% 6.0 mph W9.7 kmh W 10.0 mph16.1 kmh 30.03 in1016.9 mb 0.00 in0.0 mm 0.00 in0.0 mm 0.00 in0.0 mm
06:54 AM 41.2°F5.1°C 21.5°F-5.8°C 45% 8.0 mph W12.9 kmh W 10.0 mph16.1 kmh 30.03 in1016.9 mb 0.00 in0.0 mm 0.00 in0.0 mm 0.00 in0.0 mm
06:56 AM 41.2°F5.1°C 21.5°F-5.8°C 45% 4.0 mph WNW6.4 kmh WNW 10.0 mph16.1 kmh 30.03 in1016.9 mb 0.00 in0.0 mm 0.00 in0.0 mm 0.00 in0.0 mm
06:58 AM 41.2°F5.1°C 21.5°F-5.8°C 45% 7.0 mph W11.3 kmh W 10.0 mph16.1 kmh 30.03 in1016.9 mb 0.00 in0.0 mm 0.00 in0.0 mm 0.00 in0.0 mm
07:00 AM 41.2°F5.1°C 21.5°F-5.8°C 45% 7.0 mph W11.3 kmh W 10.0 mph16.1 kmh 30.03 in1016.9 mb 0.00 in0.0 mm 0.00 in0.0 mm 0.00 in0.0 mm
07:02 AM 41.1°F5.1°C 21.4°F-5.9°C 45% 11.0 mph NW17.7 kmh NW 11.0 mph17.7 kmh 30.03 in1016.9 mb 0.00 in0.0 mm 0.00 in0.0 mm 0.00 in0.0 mm
07:04 AM 41.2°F5.1°C 21.5°F-5.8°C 45% 9.0 mph WNW14.5 kmh WNW 11.0 mph17.7 kmh 30.03 in1016.9 mb 0.00 in0.0 mm 0.00 in0.0 mm 0.00 in0.0 mm
07:06 AM 41.2°F5.1°C 21.5°F-5.8°C 45% 5.0 mph NW8.0 kmh NW 11.0 mph17.7 kmh 30.03 in1016.9 mb 0.00 in0.0 mm 0.00 in0.0 mm 0.00 in0.0 mm
07:08 AM 41.1°F5.1°C 21.4°F-5.9°C 45% 9.0 mph WNW14.5 kmh WNW 11.0 mph17.7 kmh 30.03 in1016.9 mb 0.00 in0.0 mm 0.00 in0.0 mm 0.00 in0.0 mm
07:10 AM 41.2°F5.1°C 21.5°F-5.8°C 45% 10.0 mph WNW16.1 kmh WNW 11.0 mph17.7 kmh 30.03 in1016.9 mb 0.00 in0.0 mm 0.00 in0.0 mm 0.00 in0.0 mm
07:12 AM 41.1°F5.1°C 21.4°F-5.9°C 45% 9.0 mph WNW14.5 kmh WNW 11.0 mph17.7 kmh 30.04 in1017.3 mb 0.00 in0.0 mm 0.00 in0.0 mm 0.00 in0.0 mm
07:14 AM 41.0°F5.0°C 21.3°F-5.9°C 45% 5.0 mph WNW8.0 kmh WNW 11.0 mph17.7 kmh 30.03 in1016.9 mb 0.00 in0.0 mm 0.00 in0.0 mm 0.00 in0.0 mm
07:16 AM 41.0°F5.0°C 21.3°F-5.9°C 45% 4.0 mph NW6.4 kmh NW 11.0 mph17.7 kmh 30.03 in1016.9 mb 0.00 in0.0 mm 0.00 in0.0 mm 0.00 in0.0 mm
07:18 AM 41.0°F5.0°C 21.3°F-5.9°C 45% 7.0 mph W11.3 kmh W 14.0 mph22.5 kmh 30.03 in1016.9 mb 0.00 in0.0 mm 0.00 in0.0 mm 0.00 in0.0 mm
07:20 AM 41.0°F5.0°C 21.3°F-5.9°C 45% 7.0 mph WNW11.3 kmh WNW 14.0 mph22.5 kmh 30.03 in1016.9 mb 0.00 in0.0 mm 0.00 in0.0 mm 0.00 in0.0 mm
07:22 AM 40.9°F4.9°C 21.2°F-6.0°C 45% 7.0 mph NW11.3 kmh NW 14.0 mph22.5 kmh 30.04 in1017.3 mb 0.00 in0.0 mm 0.00 in0.0 mm 0.00 in0.0 mm
07:24 AM 40.9°F4.9°C 21.7°F-5.7°C 46% 5.0 mph NW8.0 kmh NW 14.0 mph22.5 kmh 30.04 in1017.3 mb 0.00 in0.0 mm 0.00 in0.0 mm 0.00 in0.0 mm
07:26 AM 40.8°F4.9°C 21.6°F-5.8°C 46% 3.0 mph WNW4.8 kmh WNW 14.0 mph22.5 kmh 30.04 in1017.3 mb 0.00 in0.0 mm 0.00 in0.0 mm 0.00 in0.0 mm
07:28 AM 40.8°F4.9°C 21.6°F-5.8°C 46% 7.0 mph W11.3 kmh W 14.0 mph22.5 kmh 30.05 in1017.6 mb 0.00 in0.0 mm 0.00 in0.0 mm 0.00 in0.0 mm
07:30 AM 40.8°F4.9°C 21.6°F-5.8°C 46% 5.0 mph NW8.0 kmh NW 14.0 mph22.5 kmh 30.05 in1017.6 mb 0.00 in0.0 mm 0.00 in0.0 mm 0.00 in0.0 mm
07:32 AM 40.8°F4.9°C 21.6°F-5.8°C 46% 9.0 mph NW14.5 kmh NW 14.0 mph22.5 kmh 30.04 in1017.3 mb 0.00 in0.0 mm 0.00 in0.0 mm 0.00 in0.0 mm
07:34 AM 40.8°F4.9°C 21.6°F-5.8°C 46% 6.0 mph W9.7 kmh W 11.0 mph17.7 kmh 30.04 in1017.3 mb 0.00 in0.0 mm 0.00 in0.0 mm 0.00 in0.0 mm
07:36 AM 40.8°F4.9°C 21.6°F-5.8°C 46% 9.0 mph NW14.5 kmh NW 11.0 mph17.7 kmh 30.04 in1017.3 mb 0.00 in0.0 mm 0.00 in0.0 mm 0.00 in0.0 mm
07:38 AM 40.8°F4.9°C 21.6°F-5.8°C 46% 7.0 mph NW11.3 kmh NW 11.0 mph17.7 kmh 30.04 in1017.3 mb 0.00 in0.0 mm 0.00 in0.0 mm 0.00 in0.0 mm
07:40 AM 40.8°F4.9°C 21.6°F-5.8°C 46% 9.0 mph NW14.5 kmh NW 11.0 mph17.7 kmh 30.04 in1017.3 mb 0.00 in0.0 mm 0.00 in0.0 mm 0.00 in0.0 mm
07:42 AM 40.8°F4.9°C 21.6°F-5.8°C 46% 12.0 mph WNW19.3 kmh WNW 12.0 mph19.3 kmh 30.04 in1017.3 mb 0.00 in0.0 mm 0.00 in0.0 mm 0.00 in0.0 mm
07:44 AM 40.9°F4.9°C 21.2°F-6.0°C 45% 9.0 mph NW14.5 kmh NW 12.0 mph19.3 kmh 30.04 in1017.3 mb 0.00 in0.0 mm 0.00 in0.0 mm 0.00 in0.0 mm
07:46 AM 41.0°F5.0°C 21.8°F-5.7°C 46% 5.0 mph WNW8.0 kmh WNW 12.0 mph19.3 kmh 30.04 in1017.3 mb 0.00 in0.0 mm 0.00 in0.0 mm 0.00 in0.0 mm
07:48 AM 41.1°F5.1°C 21.9°F-5.6°C 46% 11.0 mph NW17.7 kmh NW 13.0 mph20.9 kmh 30.04 in1017.3 mb 0.00 in0.0 mm 0.00 in0.0 mm 0.00 in0.0 mm
07:50 AM 41.2°F5.1°C 21.5°F-5.8°C 45% 6.0 mph NW9.7 kmh NW 14.0 mph22.5 kmh 30.04 in1017.3 mb 0.00 in0.0 mm 0.00 in0.0 mm 0.00 in0.0 mm
07:52 AM 41.3°F5.2°C 21.6°F-5.8°C 45% 8.0 mph WNW12.9 kmh WNW 15.0 mph24.1 kmh 30.04 in1017.3 mb 0.00 in0.0 mm 0.00 in0.0 mm 0.00 in0.0 mm
07:54 AM 41.3°F5.2°C 21.6°F-5.8°C 45% 13.0 mph NW20.9 kmh NW 15.0 mph24.1 kmh 30.04 in1017.3 mb 0.00 in0.0 mm 0.00 in0.0 mm 0.00 in0.0 mm
07:56 AM 41.3°F5.2°C 21.6°F-5.8°C 45% 9.0 mph NW14.5 kmh NW 15.0 mph24.1 kmh 30.04 in1017.3 mb 0.00 in0.0 mm 0.00 in0.0 mm 0.00 in0.0 mm
07:58 AM 41.4°F5.2°C 21.7°F-5.7°C 45% 11.0 mph NW17.7 kmh NW 15.0 mph24.1 kmh 30.04 in1017.3 mb 0.00 in0.0 mm 0.00 in0.0 mm 0.00 in0.0 mm
08:00 AM 41.5°F5.3°C 21.8°F-5.7°C 45% 11.0 mph W17.7 kmh W 16.0 mph25.7 kmh 30.04 in1017.3 mb 0.00 in0.0 mm 0.00 in0.0 mm 0.00 in0.0 mm
08:02 AM 41.6°F5.3°C 21.3°F-5.9°C 44% 11.0 mph NW17.7 kmh NW 16.0 mph25.7 kmh 30.04 in1017.3 mb 0.00 in0.0 mm 0.00 in0.0 mm 0.00 in0.0 mm
08:04 AM 41.8°F5.4°C 21.5°F-5.8°C 44% 11.0 mph WNW17.7 kmh WNW 17.0 mph27.4 kmh 30.04 in1017.3 mb 0.00 in0.0 mm 0.00 in0.0 mm 0.00 in0.0 mm
08:06 AM 41.8°F5.4°C 21.5°F-5.8°C 44% 8.0 mph NW12.9 kmh NW 17.0 mph27.4 kmh 30.04 in1017.3 mb 0.00 in0.0 mm 0.00 in0.0 mm 0.00 in0.0 mm
08:08 AM 41.9°F5.5°C 21.6°F-5.8°C 44% 17.0 mph WNW27.4 kmh WNW 17.0 mph27.4 kmh 30.04 in1017.3 mb 0.00 in0.0 mm 0.00 in0.0 mm 0.00 in0.0 mm
08:10 AM 42.0°F5.6°C 21.7°F-5.7°C 44% 10.0 mph NW16.1 kmh NW 17.0 mph27.4 kmh 30.04 in1017.3 mb 0.00 in0.0 mm 0.00 in0.0 mm 0.00 in0.0 mm
08:12 AM 42.1°F5.6°C 21.2°F-6.0°C 43% 12.0 mph NW19.3 kmh NW 17.0 mph27.4 kmh 30.04 in1017.3 mb 0.00 in0.0 mm 0.00 in0.0 mm 0.00 in0.0 mm
08:13 AM 42.3°F5.7°C 21.4°F-5.9°C 43% 13.0 mph NW20.9 kmh NW 18.0 mph29.0 kmh 30.04 in1017.3 mb 0.00 in0.0 mm 0.00 in0.0 mm 0.00 in0.0 mm
08:16 AM 42.4°F5.8°C 21.5°F-5.8°C 43% 15.0 mph WNW24.1 kmh WNW 18.0 mph29.0 kmh 30.04 in1017.3 mb 0.00 in0.0 mm 0.00 in0.0 mm 0.00 in0.0 mm
08:18 AM 42.6°F5.9°C 21.7°F-5.7°C 43% 10.0 mph NNW16.1 kmh NNW 18.0 mph29.0 kmh 30.04 in1017.3 mb 0.00 in0.0 mm 0.00 in0.0 mm 0.00 in0.0 mm
08:20 AM 42.6°F5.9°C 21.7°F-5.7°C 43% 13.0 mph NW20.9 kmh NW 21.0 mph33.8 kmh 30.04 in1017.3 mb 0.00 in0.0 mm 0.00 in0.0 mm 0.00 in0.0 mm
08:22 AM 42.7°F5.9°C 21.2°F-6.0°C 42% 15.0 mph NW24.1 kmh NW 24.0 mph38.6 kmh 30.04 in1017.3 mb 0.00 in0.0 mm 0.00 in0.0 mm 0.00 in0.0 mm
08:24 AM 42.8°F6.0°C 21.3°F-5.9°C 42% 12.0 mph WNW19.3 kmh WNW 24.0 mph38.6 kmh 30.04 in1017.3 mb 0.00 in0.0 mm 0.00 in0.0 mm 0.00 in0.0 mm
08:26 AM 42.9°F6.1°C 21.4°F-5.9°C 42% 8.0 mph WSW12.9 kmh WSW 24.0 mph38.6 kmh 30.04 in1017.3 mb 0.00 in0.0 mm 0.00 in0.0 mm 0.00 in0.0 mm
08:28 AM 43.0°F6.1°C 21.5°F-5.8°C 42% 12.0 mph NW19.3 kmh NW 24.0 mph38.6 kmh 30.05 in1017.6 mb 0.00 in0.0 mm 0.00 in0.0 mm 0.00 in0.0 mm
08:30 AM 43.1°F6.2°C 21.6°F-5.8°C 42% 15.0 mph NW24.1 kmh NW 24.0 mph38.6 kmh 30.05 in1017.6 mb 0.00 in0.0 mm 0.00 in0.0 mm 0.00 in0.0 mm
08:32 AM 43.1°F6.2°C 21.6°F-5.8°C 42% 16.0 mph NW25.7 kmh NW 24.0 mph38.6 kmh 30.05 in1017.6 mb 0.00 in0.0 mm 0.00 in0.0 mm 0.00 in0.0 mm
08:34 AM 43.1°F6.2°C 21.6°F-5.8°C 42% 12.0 mph WNW19.3 kmh WNW 23.0 mph37.0 kmh 30.05 in1017.6 mb 0.00 in0.0 mm 0.00 in0.0 mm 0.00 in0.0 mm
08:36 AM 43.2°F6.2°C 21.1°F-6.1°C 41% 20.0 mph NW32.2 kmh NW 23.0 mph37.0 kmh 30.05 in1017.6 mb 0.00 in0.0 mm 0.00 in0.0 mm 0.00 in0.0 mm
08:38 AM 43.3°F6.3°C 21.2°F-6.0°C 41% 15.0 mph NNW24.1 kmh NNW 23.0 mph37.0 kmh 30.05 in1017.6 mb 0.00 in0.0 mm 0.00 in0.0 mm 0.00 in0.0 mm
08:40 AM 43.4°F6.3°C 21.3°F-5.9°C 41% 11.0 mph NW17.7 kmh NW 23.0 mph37.0 kmh 30.05 in1017.6 mb 0.00 in0.0 mm 0.00 in0.0 mm 0.00 in0.0 mm
08:42 AM 43.5°F6.4°C 21.4°F-5.9°C 41% 12.0 mph NW19.3 kmh NW 23.0 mph37.0 kmh 30.05 in1017.6 mb 0.00 in0.0 mm 0.00 in0.0 mm 0.00 in0.0 mm
08:44 AM 43.6°F6.4°C 20.9°F-6.2°C 40% 8.0 mph NW12.9 kmh NW 23.0 mph37.0 kmh 30.05 in1017.6 mb 0.00 in0.0 mm 0.00 in0.0 mm 0.00 in0.0 mm
08:46 AM 43.7°F6.5°C 21.6°F-5.8°C 41% 8.0 mph NW12.9 kmh NW 23.0 mph37.0 kmh 30.05 in1017.6 mb 0.00 in0.0 mm 0.00 in0.0 mm 0.00 in0.0 mm
08:48 AM 43.8°F6.6°C 21.7°F-5.7°C 41% 9.0 mph NW14.5 kmh NW 23.0 mph37.0 kmh 30.05 in1017.6 mb 0.00 in0.0 mm 0.00 in0.0 mm 0.00 in0.0 mm
08:50 AM 44.0°F6.7°C 21.3°F-5.9°C 40% 9.0 mph NW14.5 kmh NW 23.0 mph37.0 kmh 30.05 in1017.6 mb 0.00 in0.0 mm 0.00 in0.0 mm 0.00 in0.0 mm
08:52 AM 44.0°F6.7°C 21.3°F-5.9°C 40% 11.0 mph NW17.7 kmh NW 23.0 mph37.0 kmh 30.05 in1017.6 mb 0.00 in0.0 mm 0.00 in0.0 mm 0.00 in0.0 mm
08:54 AM 44.1°F6.7°C 21.3°F-5.9°C 40% 14.0 mph WNW22.5 kmh WNW 23.0 mph37.0 kmh 30.05 in1017.6 mb 0.00 in0.0 mm 0.00 in0.0 mm 0.00 in0.0 mm
08:56 AM 44.1°F6.7°C 21.3°F-5.9°C 40% 13.0 mph WNW20.9 kmh WNW 23.0 mph37.0 kmh 30.05 in1017.6 mb 0.00 in0.0 mm 0.00 in0.0 mm 0.00 in0.0 mm
08:58 AM 44.2°F6.8°C 21.4°F-5.9°C 40% 15.0 mph WNW24.1 kmh WNW 23.0 mph37.0 kmh 30.05 in1017.6 mb 0.00 in0.0 mm 0.00 in0.0 mm 0.00 in0.0 mm
09:00 AM 44.2°F6.8°C 20.8°F-6.2°C 39% 16.0 mph NW25.7 kmh NW 23.0 mph37.0 kmh 30.05 in1017.6 mb 0.00 in0.0 mm 0.00 in0.0 mm 0.00 in0.0 mm
09:02 AM 44.3°F6.8°C 21.5°F-5.8°C 40% 5.0 mph NW8.0 kmh NW 23.0 mph37.0 kmh 30.05 in1017.6 mb 0.00 in0.0 mm 0.00 in0.0 mm 0.00 in0.0 mm
09:04 AM 44.3°F6.8°C 20.9°F-6.2°C 39% 15.0 mph N24.1 kmh N 21.0 mph33.8 kmh 30.06 in1017.9 mb 0.00 in0.0 mm 0.00 in0.0 mm 0.00 in0.0 mm
09:06 AM 44.3°F6.8°C 20.9°F-6.2°C 39% 11.0 mph WNW17.7 kmh WNW 21.0 mph33.8 kmh 30.06 in1017.9 mb 0.00 in0.0 mm 0.00 in0.0 mm 0.00 in0.0 mm
09:08 AM 44.4°F6.9°C 21.0°F-6.1°C 39% 12.0 mph WNW19.3 kmh WNW 23.0 mph37.0 kmh 30.06 in1017.9 mb 0.00 in0.0 mm 0.00 in0.0 mm 0.00 in0.0 mm
09:10 AM 44.4°F6.9°C 21.0°F-6.1°C 39% 18.0 mph NNW29.0 kmh NNW 23.0 mph37.0 kmh 30.06 in1017.9 mb 0.00 in0.0 mm 0.00 in0.0 mm 0.00 in0.0 mm
09:12 AM 44.5°F6.9°C 21.1°F-6.1°C 39% 14.0 mph NW22.5 kmh NW 23.0 mph37.0 kmh 30.06 in1017.9 mb 0.00 in0.0 mm 0.00 in0.0 mm 0.00 in0.0 mm
09:14 AM 44.5°F6.9°C 21.1°F-6.1°C 39% 10.0 mph NNW16.1 kmh NNW 23.0 mph37.0 kmh 30.07 in1018.3 mb 0.00 in0.0 mm 0.00 in0.0 mm 0.00 in0.0 mm
09:16 AM 44.5°F6.9°C 21.1°F-6.1°C 39% 15.0 mph NE24.1 kmh NE 24.0 mph38.6 kmh 30.07 in1018.3 mb 0.00 in0.0 mm 0.00 in0.0 mm 0.00 in0.0 mm
09:18 AM 44.5°F6.9°C 21.1°F-6.1°C 39% 21.0 mph NW33.8 kmh NW 24.0 mph38.6 kmh 30.07 in1018.3 mb 0.00 in0.0 mm 0.00 in0.0 mm 0.00 in0.0 mm
09:20 AM 44.5°F6.9°C 21.1°F-6.1°C 39% 13.0 mph NW20.9 kmh NW 30.0 mph48.3 kmh 30.07 in1018.3 mb 0.00 in0.0 mm 0.00 in0.0 mm 0.00 in0.0 mm
09:22 AM 44.6°F7.0°C 21.2°F-6.0°C 39% 19.0 mph NNW30.6 kmh NNW 30.0 mph48.3 kmh 30.07 in1018.3 mb 0.00 in0.0 mm 0.00 in0.0 mm 0.00 in0.0 mm
09:23 AM 44.6°F7.0°C 20.6°F-6.3°C 38% 17.0 mph NW27.4 kmh NW 30.0 mph48.3 kmh 30.07 in1018.3 mb 0.00 in0.0 mm 0.00 in0.0 mm 0.00 in0.0 mm
09:26 AM 44.8°F7.1°C 21.4°F-5.9°C 39% 8.0 mph NW12.9 kmh NW 30.0 mph48.3 kmh 30.08 in1018.6 mb 0.00 in0.0 mm 0.00 in0.0 mm 0.00 in0.0 mm
09:28 AM 44.8°F7.1°C 20.8°F-6.2°C 38% 15.0 mph NW24.1 kmh NW 30.0 mph48.3 kmh 30.08 in1018.6 mb 0.00 in0.0 mm 0.00 in0.0 mm 0.00 in0.0 mm
09:30 AM 44.9°F7.2°C 20.9°F-6.2°C 38% 13.0 mph WNW20.9 kmh WNW 30.0 mph48.3 kmh 30.08 in1018.6 mb 0.00 in0.0 mm 0.00 in0.0 mm 0.00 in0.0 mm
09:32 AM 44.9°F7.2°C 21.5°F-5.8°C 39% 5.0 mph NW8.0 kmh NW 30.0 mph48.3 kmh 30.08 in1018.6 mb 0.00 in0.0 mm 0.00 in0.0 mm 0.00 in0.0 mm
09:34 AM 45.0°F7.2°C 21.6°F-5.8°C 39% 15.0 mph N24.1 kmh N 22.0 mph35.4 kmh 30.08 in1018.6 mb 0.00 in0.0 mm 0.00 in0.0 mm 0.00 in0.0 mm
09:36 AM 45.2°F7.3°C 21.1°F-6.1°C 38% 9.0 mph NNW14.5 kmh NNW 22.0 mph35.4 kmh 30.08 in1018.6 mb 0.00 in0.0 mm 0.00 in0.0 mm 0.00 in0.0 mm
09:38 AM 45.2°F7.3°C 21.1°F-6.1°C 38% 18.0 mph NNW29.0 kmh NNW 22.0 mph35.4 kmh 30.08 in1018.6 mb 0.00 in0.0 mm 0.00 in0.0 mm 0.00 in0.0 mm
09:40 AM 45.3°F7.4°C 21.2°F-6.0°C 38% 11.0 mph N17.7 kmh N 22.0 mph35.4 kmh 30.08 in1018.6 mb 0.00 in0.0 mm 0.00 in0.0 mm 0.00 in0.0 mm
09:42 AM 45.5°F7.5°C 21.4°F-5.9°C 38% 9.0 mph NNW14.5 kmh NNW 22.0 mph35.4 kmh 30.08 in1018.6 mb 0.00 in0.0 mm 0.00 in0.0 mm 0.00 in0.0 mm
09:44 AM 45.8°F7.7°C 21.0°F-6.1°C 37% 12.0 mph N19.3 kmh N 22.0 mph35.4 kmh 30.08 in1018.6 mb 0.00 in0.0 mm 0.00 in0.0 mm 0.00 in0.0 mm
09:46 AM 45.9°F7.7°C 21.1°F-6.1°C 37% 17.0 mph NW27.4 kmh NW 22.0 mph35.4 kmh 30.09 in1019.0 mb 0.00 in0.0 mm 0.00 in0.0 mm 0.00 in0.0 mm
09:48 AM 45.9°F7.7°C 21.1°F-6.1°C 37% 6.0 mph NW9.7 kmh NW 22.0 mph35.4 kmh 30.08 in1018.6 mb 0.00 in0.0 mm 0.00 in0.0 mm 0.00 in0.0 mm
09:50 AM 46.1°F7.8°C 21.3°F-5.9°C 37% 9.0 mph NW14.5 kmh NW 22.0 mph35.4 kmh 30.09 in1019.0 mb 0.00 in0.0 mm 0.00 in0.0 mm 0.00 in0.0 mm
09:52 AM 46.3°F7.9°C 21.5°F-5.8°C 37% 4.0 mph N6.4 kmh N 22.0 mph35.4 kmh 30.09 in1019.0 mb 0.00 in0.0 mm 0.00 in0.0 mm 0.00 in0.0 mm
09:54 AM 46.5°F8.1°C 21.7°F-5.7°C 37% 15.0 mph NNW24.1 kmh NNW 22.0 mph35.4 kmh 30.09 in1019.0 mb 0.00 in0.0 mm 0.00 in0.0 mm 0.00 in0.0 mm
09:56 AM 46.6°F8.1°C 21.1°F-6.1°C 36% 12.0 mph NW19.3 kmh NW 22.0 mph35.4 kmh 30.09 in1019.0 mb 0.00 in0.0 mm 0.00 in0.0 mm 0.00 in0.0 mm
09:58 AM 46.5°F8.1°C 20.3°F-6.5°C 35% 14.0 mph NW22.5 kmh NW 24.0 mph38.6 kmh 30.09 in1019.0 mb 0.00 in0.0 mm 0.00 in0.0 mm 0.00 in0.0 mm
10:00 AM 46.6°F8.1°C 21.1°F-6.1°C 36% 17.0 mph NNW27.4 kmh NNW 24.0 mph38.6 kmh 30.10 in1019.3 mb 0.00 in0.0 mm 0.00 in0.0 mm 0.00 in0.0 mm
10:02 AM 46.7°F8.2°C 21.2°F-6.0°C 36% 18.0 mph NNW29.0 kmh NNW 24.0 mph38.6 kmh 30.10 in1019.3 mb 0.00 in0.0 mm 0.00 in0.0 mm 0.00 in0.0 mm
10:04 AM 46.8°F8.2°C 21.3°F-5.9°C 36% 12.0 mph NNW19.3 kmh NNW 14.0 mph22.5 kmh 30.10 in1019.3 mb 0.00 in0.0 mm 0.00 in0.0 mm 0.00 in0.0 mm
10:06 AM 46.9°F8.3°C 20.0°F-6.7°C 34% 5.0 mph N8.0 kmh N 17.0 mph27.4 kmh 30.10 in1019.3 mb 0.00 in0.0 mm 0.00 in0.0 mm 0.00 in0.0 mm
10:08 AM 47.1°F8.4°C 20.2°F-6.6°C 34% 13.0 mph NW20.9 kmh NW 22.0 mph35.4 kmh 30.10 in1019.3 mb 0.00 in0.0 mm 0.00 in0.0 mm 0.00 in0.0 mm
10:10 AM 47.0°F8.3°C 20.1°F-6.6°C 34% 19.0 mph NW30.6 kmh NW 24.0 mph38.6 kmh 30.11 in1019.6 mb 0.00 in0.0 mm 0.00 in0.0 mm 0.00 in0.0 mm
10:12 AM 47.0°F8.3°C 20.8°F-6.2°C 35% 14.0 mph NW22.5 kmh NW 24.0 mph38.6 kmh 30.11 in1019.6 mb 0.00 in0.0 mm 0.00 in0.0 mm 0.00 in0.0 mm
10:14 AM 47.2°F8.4°C 20.3°F-6.5°C 34% 12.0 mph NNW19.3 kmh NNW 24.0 mph38.6 kmh 30.11 in1019.6 mb 0.00 in0.0 mm 0.00 in0.0 mm 0.00 in0.0 mm
10:16 AM 47.2°F8.4°C 20.3°F-6.5°C 34% 18.0 mph NW29.0 kmh NW 24.0 mph38.6 kmh 30.11 in1019.6 mb 0.00 in0.0 mm 0.00 in0.0 mm 0.00 in0.0 mm
10:18 AM 47.3°F8.5°C 20.4°F-6.4°C 34% 20.0 mph NW32.2 kmh NW 24.0 mph38.6 kmh 30.11 in1019.6 mb 0.00 in0.0 mm 0.00 in0.0 mm 0.00 in0.0 mm
10:20 AM 47.3°F8.5°C 20.4°F-6.4°C 34% 13.0 mph N20.9 kmh N 24.0 mph38.6 kmh 30.10 in1019.3 mb 0.00 in0.0 mm 0.00 in0.0 mm 0.00 in0.0 mm
10:22 AM 47.4°F8.6°C 20.5°F-6.4°C 34% 11.0 mph NNW17.7 kmh NNW 24.0 mph38.6 kmh 30.10 in1019.3 mb 0.00 in0.0 mm 0.00 in0.0 mm 0.00 in0.0 mm
10:24 AM 47.5°F8.6°C 21.2°F-6.0°C 35% 12.0 mph NW19.3 kmh NW 24.0 mph38.6 kmh 30.11 in1019.6 mb 0.00 in0.0 mm 0.00 in0.0 mm 0.00 in0.0 mm
10:26 AM 47.6°F8.7°C 20.6°F-6.3°C 34% 12.0 mph NW19.3 kmh NW 24.0 mph38.6 kmh 30.11 in1019.6 mb 0.00 in0.0 mm 0.00 in0.0 mm 0.00 in0.0 mm
10:28 AM 47.7°F8.7°C 20.7°F-6.3°C 34% 10.0 mph NW16.1 kmh NW 24.0 mph38.6 kmh 30.11 in1019.6 mb 0.00 in0.0 mm 0.00 in0.0 mm 0.00 in0.0 mm
10:30 AM 48.0°F8.9°C 21.0°F-6.1°C 34% 15.0 mph NW24.1 kmh NW 24.0 mph38.6 kmh 30.11 in1019.6 mb 0.00 in0.0 mm 0.00 in0.0 mm 0.00 in0.0 mm
10:32 AM 48.1°F8.9°C 20.4°F-6.4°C 33% 10.0 mph NW16.1 kmh NW 24.0 mph38.6 kmh 30.11 in1019.6 mb 0.00 in0.0 mm 0.00 in0.0 mm 0.00 in0.0 mm
10:34 AM 48.2°F9.0°C 20.5°F-6.4°C 33% 10.0 mph NW16.1 kmh NW 16.0 mph25.7 kmh 30.11 in1019.6 mb 0.00 in0.0 mm 0.00 in0.0 mm 0.00 in0.0 mm
10:36 AM 48.4°F9.1°C 21.3°F-5.9°C 34% 13.0 mph NW20.9 kmh NW 21.0 mph33.8 kmh 30.10 in1019.3 mb 0.00 in0.0 mm 0.00 in0.0 mm 0.00 in0.0 mm
10:38 AM 48.5°F9.2°C 21.4°F-5.9°C 34% 18.0 mph NW29.0 kmh NW 21.0 mph33.8 kmh 30.11 in1019.6 mb 0.00 in0.0 mm 0.00 in0.0 mm 0.00 in0.0 mm
10:40 AM 48.7°F9.3°C 20.9°F-6.2°C 33% 17.0 mph NW27.4 kmh NW 21.0 mph33.8 kmh 30.11 in1019.6 mb 0.00 in0.0 mm 0.00 in0.0 mm 0.00 in0.0 mm
10:42 AM 48.6°F9.2°C 21.5°F-5.8°C 34% 16.0 mph NW25.7 kmh NW 21.0 mph33.8 kmh 30.11 in1019.6 mb 0.00 in0.0 mm 0.00 in0.0 mm 0.00 in0.0 mm
10:44 AM 48.7°F9.3°C 20.9°F-6.2°C 33% 19.0 mph NW30.6 kmh NW 21.0 mph33.8 kmh 30.10 in1019.3 mb 0.00 in0.0 mm 0.00 in0.0 mm 0.00 in0.0 mm
10:46 AM 48.6°F9.2°C 21.5°F-5.8°C 34% 11.0 mph NW17.7 kmh NW 21.0 mph33.8 kmh 30.10 in1019.3 mb 0.00 in0.0 mm 0.00 in0.0 mm 0.00 in0.0 mm
10:48 AM 48.8°F9.3°C 21.7°F-5.7°C 34% 11.0 mph WNW17.7 kmh WNW 21.0 mph33.8 kmh 30.10 in1019.3 mb 0.00 in0.0 mm 0.00 in0.0 mm 0.00 in0.0 mm
10:50 AM 49.1°F9.5°C 22.0°F-5.6°C 34% 19.0 mph WNW30.6 kmh WNW 21.0 mph33.8 kmh 30.10 in1019.3 mb 0.00 in0.0 mm 0.00 in0.0 mm 0.00 in0.0 mm
10:52 AM 49.1°F9.5°C 22.0°F-5.6°C 34% 11.0 mph NW17.7 kmh NW 21.0 mph33.8 kmh 30.10 in1019.3 mb 0.00 in0.0 mm 0.00 in0.0 mm 0.00 in0.0 mm
10:54 AM 49.1°F9.5°C 22.0°F-5.6°C 34% 10.0 mph NNW16.1 kmh NNW 21.0 mph33.8 kmh 30.10 in1019.3 mb 0.00 in0.0 mm 0.00 in0.0 mm 0.00 in0.0 mm
10:56 AM 49.2°F9.6°C 21.3°F-5.9°C 33% 19.0 mph NW30.6 kmh NW 23.0 mph37.0 kmh 30.10 in1019.3 mb 0.00 in0.0 mm 0.00 in0.0 mm 0.00 in0.0 mm
10:58 AM 49.1°F9.5°C 21.3°F-5.9°C 33% 15.0 mph NW24.1 kmh NW 23.0 mph37.0 kmh 30.10 in1019.3 mb 0.00 in0.0 mm 0.00 in0.0 mm 0.00 in0.0 mm
11:00 AM 49.0°F9.4°C 21.9°F-5.6°C 34% 11.0 mph N17.7 kmh N 23.0 mph37.0 kmh 30.10 in1019.3 mb 0.00 in0.0 mm 0.00 in0.0 mm 0.00 in0.0 mm
11:02 AM 49.1°F9.5°C 22.0°F-5.6°C 34% 18.0 mph NW29.0 kmh NW 23.0 mph37.0 kmh 30.10 in1019.3 mb 0.00 in0.0 mm 0.00 in0.0 mm 0.00 in0.0 mm
11:04 AM 49.3°F9.6°C 22.1°F-5.5°C 34% 9.0 mph WNW14.5 kmh WNW 22.0 mph35.4 kmh 30.10 in1019.3 mb 0.00 in0.0 mm 0.00 in0.0 mm 0.00 in0.0 mm
11:06 AM 49.5°F9.7°C 21.6°F-5.8°C 33% 14.0 mph NW22.5 kmh NW 22.0 mph35.4 kmh 30.10 in1019.3 mb 0.00 in0.0 mm 0.00 in0.0 mm 0.00 in0.0 mm
11:08 AM 49.5°F9.7°C 21.6°F-5.8°C 33% 20.0 mph NW32.2 kmh NW 23.0 mph37.0 kmh 30.10 in1019.3 mb 0.00 in0.0 mm 0.00 in0.0 mm 0.00 in0.0 mm
11:10 AM 49.4°F9.7°C 21.5°F-5.8°C 33% 10.0 mph NW16.1 kmh NW 24.0 mph38.6 kmh 30.10 in1019.3 mb 0.00 in0.0 mm 0.00 in0.0 mm 0.00 in0.0 mm
11:12 AM 49.4°F9.7°C 21.5°F-5.8°C 33% 19.0 mph NW30.6 kmh NW 24.0 mph38.6 kmh 30.10 in1019.3 mb 0.00 in0.0 mm 0.00 in0.0 mm 0.00 in0.0 mm
11:14 AM 49.5°F9.7°C 21.6°F-5.8°C 33% 15.0 mph NW24.1 kmh NW 24.0 mph38.6 kmh 30.10 in1019.3 mb 0.00 in0.0 mm 0.00 in0.0 mm 0.00 in0.0 mm
11:16 AM 49.5°F9.7°C 21.6°F-5.8°C 33% 14.0 mph WNW22.5 kmh WNW 25.0 mph40.2 kmh 30.10 in1019.3 mb 0.00 in0.0 mm 0.00 in0.0 mm 0.00 in0.0 mm
11:18 AM 49.6°F9.8°C 21.7°F-5.7°C 33% 16.0 mph NNW25.7 kmh NNW 25.0 mph40.2 kmh 30.10 in1019.3 mb 0.00 in0.0 mm 0.00 in0.0 mm 0.00 in0.0 mm
11:20 AM 49.6°F9.8°C 22.4°F-5.3°C 34% 14.0 mph NW22.5 kmh NW 25.0 mph40.2 kmh 30.10 in1019.3 mb 0.00 in0.0 mm 0.00 in0.0 mm 0.00 in0.0 mm
11:22 AM 49.7°F9.8°C 22.5°F-5.3°C 34% 17.0 mph NNW27.4 kmh NNW 25.0 mph40.2 kmh 30.10 in1019.3 mb 0.00 in0.0 mm 0.00 in0.0 mm 0.00 in0.0 mm
11:24 AM 49.8°F9.9°C 22.6°F-5.2°C 34% 16.0 mph NW25.7 kmh NW 25.0 mph40.2 kmh 30.09 in1019.0 mb 0.00 in0.0 mm 0.00 in0.0 mm 0.00 in0.0 mm
11:26 AM 49.9°F9.9°C 22.7°F-5.2°C 34% 18.0 mph NNW29.0 kmh NNW 25.0 mph40.2 kmh 30.10 in1019.3 mb 0.00 in0.0 mm 0.00 in0.0 mm 0.00 in0.0 mm
11:28 AM 50.1°F10.1°C 22.8°F-5.1°C 34% 9.0 mph N14.5 kmh N 25.0 mph40.2 kmh 30.10 in1019.3 mb 0.00 in0.0 mm 0.00 in0.0 mm 0.00 in0.0 mm
11:30 AM 50.2°F10.1°C 22.9°F-5.1°C 34% 8.0 mph NW12.9 kmh NW 25.0 mph40.2 kmh 30.10 in1019.3 mb 0.00 in0.0 mm 0.00 in0.0 mm 0.00 in0.0 mm
11:32 AM 50.5°F10.3°C 23.9°F-4.5°C 35% 8.0 mph WNW12.9 kmh WNW 25.0 mph40.2 kmh 30.10 in1019.3 mb 0.00 in0.0 mm 0.00 in0.0 mm 0.00 in0.0 mm
11:34 AM 50.9°F10.5°C 23.6°F-4.7°C 34% 14.0 mph NW22.5 kmh NW 14.0 mph22.5 kmh 30.10 in1019.3 mb 0.00 in0.0 mm 0.00 in0.0 mm 0.00 in0.0 mm
11:36 AM 51.0°F10.6°C 22.9°F-5.1°C 33% 15.0 mph NNW24.1 kmh NNW 20.0 mph32.2 kmh 30.10 in1019.3 mb 0.00 in0.0 mm 0.00 in0.0 mm 0.00 in0.0 mm
11:38 AM 50.8°F10.4°C 22.8°F-5.1°C 33% 20.0 mph NW32.2 kmh NW 20.0 mph32.2 kmh 30.10 in1019.3 mb 0.00 in0.0 mm 0.00 in0.0 mm 0.00 in0.0 mm
11:40 AM 50.6°F10.3°C 22.6°F-5.2°C 33% 11.0 mph NW17.7 kmh NW 24.0 mph38.6 kmh 30.10 in1019.3 mb 0.00 in0.0 mm 0.00 in0.0 mm 0.00 in0.0 mm
11:42 AM 50.6°F10.3°C 21.9°F-5.6°C 32% 9.0 mph NNW14.5 kmh NNW 24.0 mph38.6 kmh 30.09 in1019.0 mb 0.00 in0.0 mm 0.00 in0.0 mm 0.00 in0.0 mm
11:44 AM 50.5°F10.3°C 22.5°F-5.3°C 33% 14.0 mph NW22.5 kmh NW 24.0 mph38.6 kmh 30.09 in1019.0 mb 0.00 in0.0 mm 0.00 in0.0 mm 0.00 in0.0 mm
11:46 AM 50.7°F10.4°C 22.7°F-5.2°C 33% 19.0 mph WNW30.6 kmh WNW 24.0 mph38.6 kmh 30.09 in1019.0 mb 0.00 in0.0 mm 0.00 in0.0 mm 0.00 in0.0 mm
11:48 AM 50.6°F10.3°C 22.6°F-5.2°C 33% 16.0 mph NW25.7 kmh NW 24.0 mph38.6 kmh 30.09 in1019.0 mb 0.00 in0.0 mm 0.00 in0.0 mm 0.00 in0.0 mm
11:50 AM 50.5°F10.3°C 22.5°F-5.3°C 33% 15.0 mph NNW24.1 kmh NNW 24.0 mph38.6 kmh 30.09 in1019.0 mb 0.00 in0.0 mm 0.00 in0.0 mm 0.00 in0.0 mm
11:52 AM 50.5°F10.3°C 23.2°F-4.9°C 34% 8.0 mph NW12.9 kmh NW 24.0 mph38.6 kmh 30.09 in1019.0 mb 0.00 in0.0 mm 0.00 in0.0 mm 0.00 in0.0 mm
11:54 AM 50.7°F10.4°C 23.4°F-4.8°C 34% 14.0 mph NW22.5 kmh NW 24.0 mph38.6 kmh 30.09 in1019.0 mb 0.00 in0.0 mm 0.00 in0.0 mm 0.00 in0.0 mm
11:55 AM 50.8°F10.4°C 23.5°F-4.7°C 34% 14.0 mph N22.5 kmh N 24.0 mph38.6 kmh 30.09 in1019.0 mb 0.00 in0.0 mm 0.00 in0.0 mm 0.00 in0.0 mm
11:58 AM 51.2°F10.7°C 23.8°F-4.6°C 34% 10.0 mph N16.1 kmh N 24.0 mph38.6 kmh 30.08 in1018.6 mb 0.00 in0.0 mm 0.00 in0.0 mm 0.00 in0.0 mm
12:00 PM 51.5°F10.8°C 24.1°F-4.4°C 34% 11.0 mph NW17.7 kmh NW 24.0 mph38.6 kmh 30.08 in1018.6 mb 0.00 in0.0 mm 0.00 in0.0 mm 0.00 in0.0 mm
12:02 PM 51.6°F10.9°C 23.5°F-4.7°C 33% 19.0 mph NW30.6 kmh NW 24.0 mph38.6 kmh 30.08 in1018.6 mb 0.00 in0.0 mm 0.00 in0.0 mm 0.00 in0.0 mm
12:04 PM 51.5°F10.8°C 23.4°F-4.8°C 33% 13.0 mph NNW20.9 kmh NNW 19.0 mph30.6 kmh 30.08 in1018.6 mb 0.00 in0.0 mm 0.00 in0.0 mm 0.00 in0.0 mm
12:06 PM 51.3°F10.7°C 23.2°F-4.9°C 33% 12.0 mph WNW19.3 kmh WNW 20.0 mph32.2 kmh 30.08 in1018.6 mb 0.00 in0.0 mm 0.00 in0.0 mm 0.00 in0.0 mm
12:08 PM 51.4°F10.8°C 24.0°F-4.4°C 34% 15.0 mph N24.1 kmh N 20.0 mph32.2 kmh 30.08 in1018.6 mb 0.00 in0.0 mm 0.00 in0.0 mm 0.00 in0.0 mm
12:10 PM 51.6°F10.9°C 22.7°F-5.2°C 32% 11.0 mph NW17.7 kmh NW 22.0 mph35.4 kmh 30.08 in1018.6 mb 0.00 in0.0 mm 0.00 in0.0 mm 0.00 in0.0 mm
12:12 PM 51.4°F10.8°C 23.3°F-4.8°C 33% 14.0 mph WNW22.5 kmh WNW 22.0 mph35.4 kmh 30.08 in1018.6 mb 0.00 in0.0 mm 0.00 in0.0 mm 0.00 in0.0 mm
12:14 PM 51.3°F10.7°C 22.5°F-5.3°C 32% 6.0 mph NW9.7 kmh NW 22.0 mph35.4 kmh 30.08 in1018.6 mb 0.00 in0.0 mm 0.00 in0.0 mm 0.00 in0.0 mm
12:16 PM 51.3°F10.7°C 22.5°F-5.3°C 32% 12.0 mph NNW19.3 kmh NNW 23.0 mph37.0 kmh 30.08 in1018.6 mb 0.00 in0.0 mm 0.00 in0.0 mm 0.00 in0.0 mm
12:18 PM 51.3°F10.7°C 23.2°F-4.9°C 33% 19.0 mph NNW30.6 kmh NNW 23.0 mph37.0 kmh 30.08 in1018.6 mb 0.00 in0.0 mm 0.00 in0.0 mm 0.00 in0.0 mm
12:20 PM 51.4°F10.8°C 23.3°F-4.8°C 33% 15.0 mph NNW24.1 kmh NNW 23.0 mph37.0 kmh 30.08 in1018.6 mb 0.00 in0.0 mm 0.00 in0.0 mm 0.00 in0.0 mm
12:22 PM 51.6°F10.9°C 23.5°F-4.7°C 33% 10.0 mph NW16.1 kmh NW 23.0 mph37.0 kmh 30.08 in1018.6 mb 0.00 in0.0 mm 0.00 in0.0 mm 0.00 in0.0 mm
12:24 PM 51.8°F11.0°C 23.6°F-4.7°C 33% 12.0 mph WNW19.3 kmh WNW 23.0 mph37.0 kmh 30.08 in1018.6 mb 0.00 in0.0 mm 0.00 in0.0 mm 0.00 in0.0 mm
12:26 PM 51.9°F11.1°C 23.7°F-4.6°C 33% 16.0 mph WNW25.7 kmh WNW 23.0 mph37.0 kmh 30.08 in1018.6 mb 0.00 in0.0 mm 0.00 in0.0 mm 0.00 in0.0 mm
12:28 PM 51.8°F11.0°C 22.9°F-5.1°C 32% 12.0 mph NW19.3 kmh NW 23.0 mph37.0 kmh 30.08 in1018.6 mb 0.00 in0.0 mm 0.00 in0.0 mm 0.00 in0.0 mm
12:30 PM 51.9°F11.1°C 23.0°F-5.0°C 32% 11.0 mph NW17.7 kmh NW 23.0 mph37.0 kmh 30.08 in1018.6 mb 0.00 in0.0 mm 0.00 in0.0 mm 0.00 in0.0 mm
12:32 PM 52.0°F11.1°C 23.1°F-4.9°C 32% 8.0 mph NW12.9 kmh NW 23.0 mph37.0 kmh 30.08 in1018.6 mb 0.00 in0.0 mm 0.00 in0.0 mm 0.00 in0.0 mm
12:34 PM 52.3°F11.3°C 23.3°F-4.8°C 32% 19.0 mph NW30.6 kmh NW 19.0 mph30.6 kmh 30.07 in1018.3 mb 0.00 in0.0 mm 0.00 in0.0 mm 0.00 in0.0 mm
12:36 PM 52.3°F11.3°C 23.3°F-4.8°C 32% 8.0 mph NW12.9 kmh NW 19.0 mph30.6 kmh 30.08 in1018.6 mb 0.00 in0.0 mm 0.00 in0.0 mm 0.00 in0.0 mm
12:38 PM 52.4°F11.3°C 23.4°F-4.8°C 32% 21.0 mph NW33.8 kmh NW 21.0 mph33.8 kmh 30.07 in1018.3 mb 0.00 in0.0 mm 0.00 in0.0 mm 0.00 in0.0 mm
12:40 PM 52.4°F11.3°C 23.4°F-4.8°C 32% 7.0 mph NW11.3 kmh NW 21.0 mph33.8 kmh 30.08 in1018.6 mb 0.00 in0.0 mm 0.00 in0.0 mm 0.00 in0.0 mm
12:42 PM 52.4°F11.3°C 23.4°F-4.8°C 32% 11.0 mph NW17.7 kmh NW 21.0 mph33.8 kmh 30.07 in1018.3 mb 0.00 in0.0 mm 0.00 in0.0 mm 0.00 in0.0 mm
12:44 PM 52.3°F11.3°C 23.3°F-4.8°C 32% 10.0 mph WNW16.1 kmh WNW 21.0 mph33.8 kmh 30.07 in1018.3 mb 0.00 in0.0 mm 0.00 in0.0 mm 0.00 in0.0 mm
12:46 PM 52.4°F11.3°C 23.4°F-4.8°C 32% 14.0 mph NW22.5 kmh NW 21.0 mph33.8 kmh 30.07 in1018.3 mb 0.00 in0.0 mm 0.00 in0.0 mm 0.00 in0.0 mm
12:48 PM 52.5°F11.4°C 23.5°F-4.7°C 32% 15.0 mph NW24.1 kmh NW 21.0 mph33.8 kmh 30.07 in1018.3 mb 0.00 in0.0 mm 0.00 in0.0 mm 0.00 in0.0 mm
12:50 PM 52.4°F11.3°C 22.7°F-5.2°C 31% 12.0 mph NW19.3 kmh NW 21.0 mph33.8 kmh 30.07 in1018.3 mb 0.00 in0.0 mm 0.00 in0.0 mm 0.00 in0.0 mm
12:52 PM 52.5°F11.4°C 23.5°F-4.7°C 32% 10.0 mph WNW16.1 kmh WNW 21.0 mph33.8 kmh 30.07 in1018.3 mb 0.00 in0.0 mm 0.00 in0.0 mm 0.00 in0.0 mm
12:54 PM 52.6°F11.4°C 24.3°F-4.3°C 33% 19.0 mph N30.6 kmh N 21.0 mph33.8 kmh 30.07 in1018.3 mb 0.00 in0.0 mm 0.00 in0.0 mm 0.00 in0.0 mm
12:56 PM 52.6°F11.4°C 22.9°F-5.1°C 31% 13.0 mph WNW20.9 kmh WNW 22.0 mph35.4 kmh 30.07 in1018.3 mb 0.00 in0.0 mm 0.00 in0.0 mm 0.00 in0.0 mm
12:58 PM 52.5°F11.4°C 23.5°F-4.7°C 32% 12.0 mph NNW19.3 kmh NNW 22.0 mph35.4 kmh 30.07 in1018.3 mb 0.00 in0.0 mm 0.00 in0.0 mm 0.00 in0.0 mm
01:00 PM 52.6°F11.4°C 23.6°F-4.7°C 32% 8.0 mph NW12.9 kmh NW 22.0 mph35.4 kmh 30.07 in1018.3 mb 0.00 in0.0 mm 0.00 in0.0 mm 0.00 in0.0 mm
01:02 PM 53.0°F11.7°C 24.0°F-4.4°C 32% 12.0 mph NNW19.3 kmh NNW 22.0 mph35.4 kmh 30.07 in1018.3 mb 0.00 in0.0 mm 0.00 in0.0 mm 0.00 in0.0 mm
01:04 PM 53.1°F11.7°C 24.0°F-4.4°C 32% 8.0 mph NW12.9 kmh NW 18.0 mph29.0 kmh 30.07 in1018.3 mb 0.00 in0.0 mm 0.00 in0.0 mm 0.00 in0.0 mm
01:06 PM 53.1°F11.7°C 23.3°F-4.8°C 31% 18.0 mph NW29.0 kmh NW 20.0 mph32.2 kmh 30.07 in1018.3 mb 0.00 in0.0 mm 0.00 in0.0 mm 0.00 in0.0 mm
01:08 PM 53.2°F11.8°C 23.4°F-4.8°C 31% 9.0 mph NW14.5 kmh NW 25.0 mph40.2 kmh 30.07 in1018.3 mb 0.00 in0.0 mm 0.00 in0.0 mm 0.00 in0.0 mm
01:10 PM 53.3°F11.8°C 23.5°F-4.7°C 31% 11.0 mph NNW17.7 kmh NNW 25.0 mph40.2 kmh 30.07 in1018.3 mb 0.00 in0.0 mm 0.00 in0.0 mm 0.00 in0.0 mm
01:12 PM 53.5°F11.9°C 24.4°F-4.2°C 32% 9.0 mph NW14.5 kmh NW 25.0 mph40.2 kmh 30.07 in1018.3 mb 0.00 in0.0 mm 0.00 in0.0 mm 0.00 in0.0 mm
01:14 PM 53.7°F12.1°C 24.6°F-4.1°C 32% 16.0 mph NW25.7 kmh NW 25.0 mph40.2 kmh 30.07 in1018.3 mb 0.00 in0.0 mm 0.00 in0.0 mm 0.00 in0.0 mm
01:16 PM 53.8°F12.1°C 23.9°F-4.5°C 31% 16.0 mph NW25.7 kmh NW 25.0 mph40.2 kmh 30.07 in1018.3 mb 0.00 in0.0 mm 0.00 in0.0 mm 0.00 in0.0 mm
01:18 PM 53.7°F12.1°C 23.8°F-4.6°C 31% 15.0 mph WNW24.1 kmh WNW 25.0 mph40.2 kmh 30.07 in1018.3 mb 0.00 in0.0 mm 0.00 in0.0 mm 0.00 in0.0 mm
01:20 PM 53.5°F11.9°C 23.6°F-4.7°C 31% 12.0 mph NW19.3 kmh NW 25.0 mph40.2 kmh 30.07 in1018.3 mb 0.00 in0.0 mm 0.00 in0.0 mm 0.00 in0.0 mm
01:22 PM 53.5°F11.9°C 24.4°F-4.2°C 32% 8.0 mph WNW12.9 kmh WNW 25.0 mph40.2 kmh 30.07 in1018.3 mb 0.00 in0.0 mm 0.00 in0.0 mm 0.00 in0.0 mm
01:24 PM 53.8°F12.1°C 24.7°F-4.1°C 32% 13.0 mph WNW20.9 kmh WNW 25.0 mph40.2 kmh 30.07 in1018.3 mb 0.00 in0.0 mm 0.00 in0.0 mm 0.00 in0.0 mm
01:26 PM 54.0°F12.2°C 24.1°F-4.4°C 31% 14.0 mph NW22.5 kmh NW 25.0 mph40.2 kmh 30.07 in1018.3 mb 0.00 in0.0 mm 0.00 in0.0 mm 0.00 in0.0 mm
01:28 PM 54.0°F12.2°C 24.1°F-4.4°C 31% 9.0 mph W14.5 kmh W 25.0 mph40.2 kmh 30.07 in1018.3 mb 0.00 in0.0 mm 0.00 in0.0 mm 0.00 in0.0 mm
01:30 PM 54.1°F12.3°C 24.2°F-4.3°C 31% 9.0 mph NW14.5 kmh NW 25.0 mph40.2 kmh 30.07 in1018.3 mb 0.00 in0.0 mm 0.00 in0.0 mm 0.00 in0.0 mm
01:32 PM 54.3°F12.4°C 23.6°F-4.7°C 30% 12.0 mph NW19.3 kmh NW 25.0 mph40.2 kmh 30.07 in1018.3 mb 0.00 in0.0 mm 0.00 in0.0 mm 0.00 in0.0 mm
01:34 PM 54.3°F12.4°C 23.6°F-4.7°C 30% 10.0 mph NW16.1 kmh NW 23.0 mph37.0 kmh 30.07 in1018.3 mb 0.00 in0.0 mm 0.00 in0.0 mm 0.00 in0.0 mm
01:36 PM 54.0°F12.2°C 23.3°F-4.8°C 30% 15.0 mph NNW24.1 kmh NNW 23.0 mph37.0 kmh 30.07 in1018.3 mb 0.00 in0.0 mm 0.00 in0.0 mm 0.00 in0.0 mm
01:38 PM 53.8°F12.1°C 23.1°F-4.9°C 30% 13.0 mph NW20.9 kmh NW 23.0 mph37.0 kmh 30.07 in1018.3 mb 0.00 in0.0 mm 0.00 in0.0 mm 0.00 in0.0 mm
01:40 PM 53.8°F12.1°C 23.9°F-4.5°C 31% 12.0 mph NNW19.3 kmh NNW 23.0 mph37.0 kmh 30.07 in1018.3 mb 0.00 in0.0 mm 0.00 in0.0 mm 0.00 in0.0 mm
01:42 PM 54.0°F12.2°C 24.1°F-4.4°C 31% 12.0 mph WNW19.3 kmh WNW 23.0 mph37.0 kmh 30.07 in1018.3 mb 0.00 in0.0 mm 0.00 in0.0 mm 0.00 in0.0 mm
01:44 PM 54.3°F12.4°C 24.3°F-4.3°C 31% 5.0 mph NW8.0 kmh NW 23.0 mph37.0 kmh 30.08 in1018.6 mb 0.00 in0.0 mm 0.00 in0.0 mm 0.00 in0.0 mm
01:46 PM 54.4°F12.4°C 23.6°F-4.7°C 30% 12.0 mph NW19.3 kmh NW 23.0 mph37.0 kmh 30.07 in1018.3 mb 0.00 in0.0 mm 0.00 in0.0 mm 0.00 in0.0 mm
01:48 PM 54.5°F12.5°C 23.7°F-4.6°C 30% 19.0 mph NW30.6 kmh NW 23.0 mph37.0 kmh 30.07 in1018.3 mb 0.00 in0.0 mm 0.00 in0.0 mm 0.00 in0.0 mm
01:50 PM 54.3°F12.4°C 23.6°F-4.7°C 30% 12.0 mph NW19.3 kmh NW 23.0 mph37.0 kmh 30.07 in1018.3 mb 0.00 in0.0 mm 0.00 in0.0 mm 0.00 in0.0 mm
01:52 PM 54.1°F12.3°C 23.4°F-4.8°C 30% 8.0 mph WNW12.9 kmh WNW 23.0 mph37.0 kmh 30.07 in1018.3 mb 0.00 in0.0 mm 0.00 in0.0 mm 0.00 in0.0 mm
01:54 PM 54.2°F12.3°C 23.5°F-4.7°C 30% 10.0 mph WNW16.1 kmh WNW 23.0 mph37.0 kmh 30.07 in1018.3 mb 0.00 in0.0 mm 0.00 in0.0 mm 0.00 in0.0 mm
01:56 PM 54.3°F12.4°C 23.6°F-4.7°C 30% 11.0 mph W17.7 kmh W 23.0 mph37.0 kmh 30.07 in1018.3 mb 0.00 in0.0 mm 0.00 in0.0 mm 0.00 in0.0 mm
01:58 PM 54.4°F12.4°C 23.6°F-4.7°C 30% 12.0 mph N19.3 kmh N 23.0 mph37.0 kmh 30.07 in1018.3 mb 0.00 in0.0 mm 0.00 in0.0 mm 0.00 in0.0 mm
02:00 PM 54.5°F12.5°C 23.7°F-4.6°C 30% 11.0 mph NNW17.7 kmh NNW 23.0 mph37.0 kmh 30.07 in1018.3 mb 0.00 in0.0 mm 0.00 in0.0 mm 0.00 in0.0 mm
02:02 PM 54.6°F12.6°C 23.8°F-4.6°C 30% 15.0 mph NW24.1 kmh NW 23.0 mph37.0 kmh 30.07 in1018.3 mb 0.00 in0.0 mm 0.00 in0.0 mm 0.00 in0.0 mm
02:04 PM 54.7°F12.6°C 23.9°F-4.5°C 30% 13.0 mph NW20.9 kmh NW 20.0 mph32.2 kmh 30.07 in1018.3 mb 0.00 in0.0 mm 0.00 in0.0 mm 0.00 in0.0 mm
02:06 PM 54.7°F12.6°C 24.7°F-4.1°C 31% 13.0 mph NNW20.9 kmh NNW 20.0 mph32.2 kmh 30.07 in1018.3 mb 0.00 in0.0 mm 0.00 in0.0 mm 0.00 in0.0 mm
02:08 PM 54.7°F12.6°C 23.9°F-4.5°C 30% 12.0 mph NW19.3 kmh NW 20.0 mph32.2 kmh 30.07 in1018.3 mb 0.00 in0.0 mm 0.00 in0.0 mm 0.00 in0.0 mm
02:10 PM 54.7°F12.6°C 23.9°F-4.5°C 30% 16.0 mph W25.7 kmh W 20.0 mph32.2 kmh 30.07 in1018.3 mb 0.00 in0.0 mm 0.00 in0.0 mm 0.00 in0.0 mm
02:12 PM 54.7°F12.6°C 23.9°F-4.5°C 30% 15.0 mph NW24.1 kmh NW 20.0 mph32.2 kmh 30.07 in1018.3 mb 0.00 in0.0 mm 0.00 in0.0 mm 0.00 in0.0 mm
02:14 PM 54.8°F12.7°C 24.8°F-4.0°C 31% 11.0 mph WNW17.7 kmh WNW 20.0 mph32.2 kmh 30.07 in1018.3 mb 0.00 in0.0 mm 0.00 in0.0 mm 0.00 in0.0 mm
02:16 PM 55.1°F12.8°C 25.0°F-3.9°C 31% 15.0 mph WNW24.1 kmh WNW 20.0 mph32.2 kmh 30.07 in1018.3 mb 0.00 in0.0 mm 0.00 in0.0 mm 0.00 in0.0 mm
02:18 PM 55.1°F12.8°C 24.2°F-4.3°C 30% 18.0 mph WNW29.0 kmh WNW 20.0 mph32.2 kmh 30.07 in1018.3 mb 0.00 in0.0 mm 0.00 in0.0 mm 0.00 in0.0 mm
02:20 PM 55.0°F12.8°C 24.2°F-4.3°C 30% 6.0 mph W9.7 kmh W 20.0 mph32.2 kmh 30.07 in1018.3 mb 0.00 in0.0 mm 0.00 in0.0 mm 0.00 in0.0 mm
02:22 PM 55.1°F12.8°C 25.0°F-3.9°C 31% 10.0 mph NW16.1 kmh NW 20.0 mph32.2 kmh 30.07 in1018.3 mb 0.00 in0.0 mm 0.00 in0.0 mm 0.00 in0.0 mm
02:24 PM 55.4°F13.0°C 25.3°F-3.7°C 31% 11.0 mph NW17.7 kmh NW 20.0 mph32.2 kmh 30.07 in1018.3 mb 0.00 in0.0 mm 0.00 in0.0 mm 0.00 in0.0 mm
02:26 PM 55.5°F13.1°C 24.6°F-4.1°C 30% 12.0 mph W19.3 kmh W 20.0 mph32.2 kmh 30.07 in1018.3 mb 0.00 in0.0 mm 0.00 in0.0 mm 0.00 in0.0 mm
02:28 PM 55.3°F12.9°C 24.4°F-4.2°C 30% 11.0 mph W17.7 kmh W 20.0 mph32.2 kmh 30.07 in1018.3 mb 0.00 in0.0 mm 0.00 in0.0 mm 0.00 in0.0 mm
02:30 PM 55.3°F12.9°C 24.4°F-4.2°C 30% 13.0 mph NW20.9 kmh NW 20.0 mph32.2 kmh 30.07 in1018.3 mb 0.00 in0.0 mm 0.00 in0.0 mm 0.00 in0.0 mm
02:32 PM 55.1°F12.8°C 24.2°F-4.3°C 30% 10.0 mph NW16.1 kmh NW 20.0 mph32.2 kmh 30.07 in1018.3 mb 0.00 in0.0 mm 0.00 in0.0 mm 0.00 in0.0 mm
02:34 PM 55.2°F12.9°C 24.3°F-4.3°C 30% 9.0 mph NW14.5 kmh NW 18.0 mph29.0 kmh 30.07 in1018.3 mb 0.00 in0.0 mm 0.00 in0.0 mm 0.00 in0.0 mm
02:36 PM 55.2°F12.9°C 25.1°F-3.8°C 31% 12.0 mph NW19.3 kmh NW 18.0 mph29.0 kmh 30.07 in1018.3 mb 0.00 in0.0 mm 0.00 in0.0 mm 0.00 in0.0 mm
02:38 PM 55.2°F12.9°C 24.3°F-4.3°C 30% 9.0 mph W14.5 kmh W 22.0 mph35.4 kmh 30.07 in1018.3 mb 0.00 in0.0 mm 0.00 in0.0 mm 0.00 in0.0 mm
02:40 PM 55.2°F12.9°C 24.3°F-4.3°C 30% 10.0 mph NW16.1 kmh NW 22.0 mph35.4 kmh 30.07 in1018.3 mb 0.00 in0.0 mm 0.00 in0.0 mm 0.00 in0.0 mm
02:42 PM 55.3°F12.9°C 25.2°F-3.8°C 31% 20.0 mph NW32.2 kmh NW 22.0 mph35.4 kmh 30.07 in1018.3 mb 0.00 in0.0 mm 0.00 in0.0 mm 0.00 in0.0 mm
02:44 PM 55.4°F13.0°C 24.5°F-4.2°C 30% 11.0 mph WNW17.7 kmh WNW 22.0 mph35.4 kmh 30.07 in1018.3 mb 0.00 in0.0 mm 0.00 in0.0 mm 0.00 in0.0 mm
02:46 PM 55.3°F12.9°C 24.4°F-4.2°C 30% 6.0 mph W9.7 kmh W 22.0 mph35.4 kmh 30.07 in1018.3 mb 0.00 in0.0 mm 0.00 in0.0 mm 0.00 in0.0 mm
02:48 PM 55.3°F12.9°C 24.4°F-4.2°C 30% 10.0 mph W16.1 kmh W 22.0 mph35.4 kmh 30.07 in1018.3 mb 0.00 in0.0 mm 0.00 in0.0 mm 0.00 in0.0 mm
02:50 PM 55.3°F12.9°C 25.2°F-3.8°C 31% 5.0 mph NW8.0 kmh NW 22.0 mph35.4 kmh 30.07 in1018.3 mb 0.00 in0.0 mm 0.00 in0.0 mm 0.00 in0.0 mm
02:52 PM 55.6°F13.1°C 25.5°F-3.6°C 31% 9.0 mph WNW14.5 kmh WNW 22.0 mph35.4 kmh 30.07 in1018.3 mb 0.00 in0.0 mm 0.00 in0.0 mm 0.00 in0.0 mm
02:54 PM 55.8°F13.2°C 24.9°F-3.9°C 30% 15.0 mph WNW24.1 kmh WNW 22.0 mph35.4 kmh 30.07 in1018.3 mb 0.00 in0.0 mm 0.00 in0.0 mm 0.00 in0.0 mm
02:56 PM 55.5°F13.1°C 24.6°F-4.1°C 30% 15.0 mph NW24.1 kmh NW 22.0 mph35.4 kmh 30.07 in1018.3 mb 0.00 in0.0 mm 0.00 in0.0 mm 0.00 in0.0 mm
02:58 PM 55.5°F13.1°C 24.6°F-4.1°C 30% 13.0 mph WNW20.9 kmh WNW 22.0 mph35.4 kmh 30.07 in1018.3 mb 0.00 in0.0 mm 0.00 in0.0 mm 0.00 in0.0 mm
03:00 PM 55.5°F13.1°C 24.6°F-4.1°C 30% 14.0 mph WNW22.5 kmh WNW 22.0 mph35.4 kmh 30.07 in1018.3 mb 0.00 in0.0 mm 0.00 in0.0 mm 0.00 in0.0 mm
03:02 PM 55.6°F13.1°C 25.5°F-3.6°C 31% 10.0 mph W16.1 kmh W 22.0 mph35.4 kmh 30.07 in1018.3 mb 0.00 in0.0 mm 0.00 in0.0 mm 0.00 in0.0 mm
03:04 PM 55.7°F13.2°C 24.8°F-4.0°C 30% 17.0 mph NW27.4 kmh NW 22.0 mph35.4 kmh 30.07 in1018.3 mb 0.00 in0.0 mm 0.00 in0.0 mm 0.00 in0.0 mm
03:06 PM 55.6°F13.1°C 24.7°F-4.1°C 30% 12.0 mph NW19.3 kmh NW 22.0 mph35.4 kmh 30.07 in1018.3 mb 0.00 in0.0 mm 0.00 in0.0 mm 0.00 in0.0 mm
03:08 PM 55.7°F13.2°C 24.8°F-4.0°C 30% 6.0 mph NNW9.7 kmh NNW 22.0 mph35.4 kmh 30.07 in1018.3 mb 0.00 in0.0 mm 0.00 in0.0 mm 0.00 in0.0 mm
03:10 PM 55.7°F13.2°C 24.8°F-4.0°C 30% 10.0 mph W16.1 kmh W 24.0 mph38.6 kmh 30.07 in1018.3 mb 0.00 in0.0 mm 0.00 in0.0 mm 0.00 in0.0 mm
03:12 PM 55.8°F13.2°C 24.9°F-3.9°C 30% 12.0 mph WNW19.3 kmh WNW 24.0 mph38.6 kmh 30.07 in1018.3 mb 0.00 in0.0 mm 0.00 in0.0 mm 0.00 in0.0 mm
03:14 PM 55.8°F13.2°C 24.9°F-3.9°C 30% 16.0 mph W25.7 kmh W 24.0 mph38.6 kmh 30.07 in1018.3 mb 0.00 in0.0 mm 0.00 in0.0 mm 0.00 in0.0 mm
03:16 PM 55.9°F13.3°C 24.1°F-4.4°C 29% 10.0 mph NW16.1 kmh NW 24.0 mph38.6 kmh 30.07 in1018.3 mb 0.00 in0.0 mm 0.00 in0.0 mm 0.00 in0.0 mm
03:18 PM 56.0°F13.3°C 24.2°F-4.3°C 29% 14.0 mph NW22.5 kmh NW 24.0 mph38.6 kmh 30.08 in1018.6 mb 0.00 in0.0 mm 0.00 in0.0 mm 0.00 in0.0 mm
03:20 PM 56.0°F13.3°C 24.2°F-4.3°C 29% 12.0 mph NNW19.3 kmh NNW 24.0 mph38.6 kmh 30.08 in1018.6 mb 0.00 in0.0 mm 0.00 in0.0 mm 0.00 in0.0 mm
03:22 PM 56.1°F13.4°C 24.3°F-4.3°C 29% 11.0 mph NNE17.7 kmh NNE 24.0 mph38.6 kmh 30.08 in1018.6 mb 0.00 in0.0 mm 0.00 in0.0 mm 0.00 in0.0 mm
03:24 PM 56.2°F13.4°C 24.4°F-4.2°C 29% 23.0 mph NW37.0 kmh NW 24.0 mph38.6 kmh 30.08 in1018.6 mb 0.00 in0.0 mm 0.00 in0.0 mm 0.00 in0.0 mm
03:26 PM 56.2°F13.4°C 24.4°F-4.2°C 29% 11.0 mph NW17.7 kmh NW 24.0 mph38.6 kmh 30.08 in1018.6 mb 0.00 in0.0 mm 0.00 in0.0 mm 0.00 in0.0 mm
03:28 PM 56.1°F13.4°C 24.3°F-4.3°C 29% 14.0 mph NW22.5 kmh NW 24.0 mph38.6 kmh 30.08 in1018.6 mb 0.00 in0.0 mm 0.00 in0.0 mm 0.00 in0.0 mm
03:30 PM 56.2°F13.4°C 23.6°F-4.7°C 28% 13.0 mph NW20.9 kmh NW 24.0 mph38.6 kmh 30.08 in1018.6 mb 0.00 in0.0 mm 0.00 in0.0 mm 0.00 in0.0 mm
03:32 PM 56.3°F13.5°C 23.6°F-4.7°C 28% 20.0 mph NW32.2 kmh NW 24.0 mph38.6 kmh 30.08 in1018.6 mb 0.00 in0.0 mm 0.00 in0.0 mm 0.00 in0.0 mm
03:34 PM 56.2°F13.4°C 23.6°F-4.7°C 28% 15.0 mph NW24.1 kmh NW 17.0 mph27.4 kmh 30.07 in1018.3 mb 0.00 in0.0 mm 0.00 in0.0 mm 0.00 in0.0 mm
03:36 PM 56.3°F13.5°C 23.6°F-4.7°C 28% 13.0 mph WNW20.9 kmh WNW 23.0 mph37.0 kmh 30.08 in1018.6 mb 0.00 in0.0 mm 0.00 in0.0 mm 0.00 in0.0 mm
03:38 PM 56.4°F13.6°C 23.7°F-4.6°C 28% 15.0 mph NW24.1 kmh NW 23.0 mph37.0 kmh 30.08 in1018.6 mb 0.00 in0.0 mm 0.00 in0.0 mm 0.00 in0.0 mm
03:40 PM 56.4°F13.6°C 23.7°F-4.6°C 28% 11.0 mph NW17.7 kmh NW 23.0 mph37.0 kmh 30.08 in1018.6 mb 0.00 in0.0 mm 0.00 in0.0 mm 0.00 in0.0 mm
03:42 PM 56.3°F13.5°C 23.6°F-4.7°C 28% 14.0 mph WNW22.5 kmh WNW 23.0 mph37.0 kmh 30.08 in1018.6 mb 0.00 in0.0 mm 0.00 in0.0 mm 0.00 in0.0 mm
03:44 PM 56.3°F13.5°C 23.6°F-4.7°C 28% 11.0 mph NW17.7 kmh NW 23.0 mph37.0 kmh 30.08 in1018.6 mb 0.00 in0.0 mm 0.00 in0.0 mm 0.00 in0.0 mm
03:46 PM 56.2°F13.4°C 23.6°F-4.7°C 28% 12.0 mph NW19.3 kmh NW 23.0 mph37.0 kmh 30.08 in1018.6 mb 0.00 in0.0 mm 0.00 in0.0 mm 0.00 in0.0 mm
03:48 PM 56.3°F13.5°C 24.5°F-4.2°C 29% 8.0 mph N12.9 kmh N 23.0 mph37.0 kmh 30.08 in1018.6 mb 0.00 in0.0 mm 0.00 in0.0 mm 0.00 in0.0 mm
03:50 PM 56.5°F13.6°C 24.7°F-4.1°C 29% 14.0 mph WNW22.5 kmh WNW 23.0 mph37.0 kmh 30.08 in1018.6 mb 0.00 in0.0 mm 0.00 in0.0 mm 0.00 in0.0 mm
03:52 PM 56.5°F13.6°C 23.8°F-4.6°C 28% 12.0 mph NW19.3 kmh NW 23.0 mph37.0 kmh 30.08 in1018.6 mb 0.00 in0.0 mm 0.00 in0.0 mm 0.00 in0.0 mm
03:54 PM 56.6°F13.7°C 24.7°F-4.1°C 29% 8.0 mph SW12.9 kmh SW 23.0 mph37.0 kmh 30.08 in1018.6 mb 0.00 in0.0 mm 0.00 in0.0 mm 0.00 in0.0 mm
03:56 PM 56.6°F13.7°C 24.7°F-4.1°C 29% 10.0 mph WNW16.1 kmh WNW 23.0 mph37.0 kmh 30.08 in1018.6 mb 0.00 in0.0 mm 0.00 in0.0 mm 0.00 in0.0 mm
03:58 PM 56.6°F13.7°C 24.7°F-4.1°C 29% 12.0 mph N19.3 kmh N 23.0 mph37.0 kmh 30.08 in1018.6 mb 0.00 in0.0 mm 0.00 in0.0 mm 0.00 in0.0 mm
04:00 PM 56.5°F13.6°C 24.7°F-4.1°C 29% 10.0 mph NW16.1 kmh NW 23.0 mph37.0 kmh 30.08 in1018.6 mb 0.00 in0.0 mm 0.00 in0.0 mm 0.00 in0.0 mm
04:02 PM 56.5°F13.6°C 24.7°F-4.1°C 29% 10.0 mph W16.1 kmh W 23.0 mph37.0 kmh 30.08 in1018.6 mb 0.00 in0.0 mm 0.00 in0.0 mm 0.00 in0.0 mm
04:04 PM 56.5°F13.6°C 24.7°F-4.1°C 29% 10.0 mph WNW16.1 kmh WNW 15.0 mph24.1 kmh 30.08 in1018.6 mb 0.00 in0.0 mm 0.00 in0.0 mm 0.00 in0.0 mm
04:06 PM 56.5°F13.6°C 24.7°F-4.1°C 29% 15.0 mph W24.1 kmh W 19.0 mph30.6 kmh 30.08 in1018.6 mb 0.00 in0.0 mm 0.00 in0.0 mm 0.00 in0.0 mm
04:08 PM 56.5°F13.6°C 24.7°F-4.1°C 29% 9.0 mph WNW14.5 kmh WNW 19.0 mph30.6 kmh 30.08 in1018.6 mb 0.00 in0.0 mm 0.00 in0.0 mm 0.00 in0.0 mm
04:10 PM 56.5°F13.6°C 23.8°F-4.6°C 28% 10.0 mph WNW16.1 kmh WNW 20.0 mph32.2 kmh 30.08 in1018.6 mb 0.00 in0.0 mm 0.00 in0.0 mm 0.00 in0.0 mm
04:12 PM 56.4°F13.6°C 24.6°F-4.1°C 29% 9.0 mph NW14.5 kmh NW 20.0 mph32.2 kmh 30.08 in1018.6 mb 0.00 in0.0 mm 0.00 in0.0 mm 0.00 in0.0 mm
04:14 PM 56.5°F13.6°C 24.7°F-4.1°C 29% 8.0 mph NW12.9 kmh NW 20.0 mph32.2 kmh 30.08 in1018.6 mb 0.00 in0.0 mm 0.00 in0.0 mm 0.00 in0.0 mm
04:16 PM 56.4°F13.6°C 24.6°F-4.1°C 29% 12.0 mph NW19.3 kmh NW 20.0 mph32.2 kmh 30.08 in1018.6 mb 0.00 in0.0 mm 0.00 in0.0 mm 0.00 in0.0 mm
04:18 PM 56.4°F13.6°C 24.6°F-4.1°C 29% 13.0 mph NW20.9 kmh NW 20.0 mph32.2 kmh 30.08 in1018.6 mb 0.00 in0.0 mm 0.00 in0.0 mm 0.00 in0.0 mm
04:20 PM 56.5°F13.6°C 24.7°F-4.1°C 29% 9.0 mph WNW14.5 kmh WNW 20.0 mph32.2 kmh 30.08 in1018.6 mb 0.00 in0.0 mm 0.00 in0.0 mm 0.00 in0.0 mm
04:22 PM 56.5°F13.6°C 24.7°F-4.1°C 29% 17.0 mph NW27.4 kmh NW 20.0 mph32.2 kmh 30.08 in1018.6 mb 0.00 in0.0 mm 0.00 in0.0 mm 0.00 in0.0 mm
04:24 PM 56.4°F13.6°C 24.6°F-4.1°C 29% 8.0 mph WSW12.9 kmh WSW 20.0 mph32.2 kmh 30.08 in1018.6 mb 0.00 in0.0 mm 0.00 in0.0 mm 0.00 in0.0 mm
04:26 PM 56.3°F13.5°C 24.5°F-4.2°C 29% 9.0 mph NW14.5 kmh NW 20.0 mph32.2 kmh 30.08 in1018.6 mb 0.00 in0.0 mm 0.00 in0.0 mm 0.00 in0.0 mm
04:28 PM 56.4°F13.6°C 24.6°F-4.1°C 29% 12.0 mph WNW19.3 kmh WNW 20.0 mph32.2 kmh 30.08 in1018.6 mb 0.00 in0.0 mm 0.00 in0.0 mm 0.00 in0.0 mm
04:30 PM 56.3°F13.5°C 24.5°F-4.2°C 29% 14.0 mph NW22.5 kmh NW 20.0 mph32.2 kmh 30.08 in1018.6 mb 0.00 in0.0 mm 0.00 in0.0 mm 0.00 in0.0 mm
04:32 PM 56.3°F13.5°C 24.5°F-4.2°C 29% 13.0 mph NW20.9 kmh NW 20.0 mph32.2 kmh 30.09 in1019.0 mb 0.00 in0.0 mm 0.00 in0.0 mm 0.00 in0.0 mm
04:34 PM 56.2°F13.4°C 24.4°F-4.2°C 29% 15.0 mph NW24.1 kmh NW 15.0 mph24.1 kmh 30.08 in1018.6 mb 0.00 in0.0 mm 0.00 in0.0 mm 0.00 in0.0 mm
04:36 PM 56.3°F13.5°C 24.5°F-4.2°C 29% 12.0 mph NNW19.3 kmh NNW 16.0 mph25.7 kmh 30.08 in1018.6 mb 0.00 in0.0 mm 0.00 in0.0 mm 0.00 in0.0 mm
04:38 PM 56.2°F13.4°C 24.4°F-4.2°C 29% 8.0 mph NW12.9 kmh NW 16.0 mph25.7 kmh 30.09 in1019.0 mb 0.00 in0.0 mm 0.00 in0.0 mm 0.00 in0.0 mm
04:40 PM 56.2°F13.4°C 24.4°F-4.2°C 29% 15.0 mph NW24.1 kmh NW 16.0 mph25.7 kmh 30.09 in1019.0 mb 0.00 in0.0 mm 0.00 in0.0 mm 0.00 in0.0 mm
04:42 PM 56.2°F13.4°C 24.4°F-4.2°C 29% 17.0 mph NW27.4 kmh NW 17.0 mph27.4 kmh 30.08 in1018.6 mb 0.00 in0.0 mm 0.00 in0.0 mm 0.00 in0.0 mm
04:44 PM 56.2°F13.4°C 25.2°F-3.8°C 30% 8.0 mph NW12.9 kmh NW 17.0 mph27.4 kmh 30.08 in1018.6 mb 0.00 in0.0 mm 0.00 in0.0 mm 0.00 in0.0 mm
04:46 PM 56.2°F13.4°C 25.2°F-3.8°C 30% 7.0 mph WNW11.3 kmh WNW 17.0 mph27.4 kmh 30.09 in1019.0 mb 0.00 in0.0 mm 0.00 in0.0 mm 0.00 in0.0 mm
04:48 PM 56.2°F13.4°C 25.2°F-3.8°C 30% 12.0 mph WNW19.3 kmh WNW 17.0 mph27.4 kmh 30.08 in1018.6 mb 0.00 in0.0 mm 0.00 in0.0 mm 0.00 in0.0 mm
04:50 PM 56.1°F13.4°C 25.1°F-3.8°C 30% 12.0 mph WNW19.3 kmh WNW 19.0 mph30.6 kmh 30.09 in1019.0 mb 0.00 in0.0 mm 0.00 in0.0 mm 0.00 in0.0 mm
04:52 PM 56.0°F13.3°C 25.0°F-3.9°C 30% 7.0 mph WNW11.3 kmh WNW 19.0 mph30.6 kmh 30.09 in1019.0 mb 0.00 in0.0 mm 0.00 in0.0 mm 0.00 in0.0 mm
04:54 PM 56.0°F13.3°C 25.0°F-3.9°C 30% 15.0 mph NW24.1 kmh NW 19.0 mph30.6 kmh 30.09 in1019.0 mb 0.00 in0.0 mm 0.00 in0.0 mm 0.00 in0.0 mm
04:56 PM 55.9°F13.3°C 24.9°F-3.9°C 30% 13.0 mph WNW20.9 kmh WNW 19.0 mph30.6 kmh 30.08 in1018.6 mb 0.00 in0.0 mm 0.00 in0.0 mm 0.00 in0.0 mm
04:58 PM 55.8°F13.2°C 24.9°F-3.9°C 30% 11.0 mph NW17.7 kmh NW 19.0 mph30.6 kmh 30.09 in1019.0 mb 0.00 in0.0 mm 0.00 in0.0 mm 0.00 in0.0 mm
05:00 PM 55.7°F13.2°C 24.8°F-4.0°C 30% 11.0 mph NW17.7 kmh NW 19.0 mph30.6 kmh 30.09 in1019.0 mb 0.00 in0.0 mm 0.00 in0.0 mm 0.00 in0.0 mm
05:02 PM 55.7°F13.2°C 25.6°F-3.6°C 31% 12.0 mph NW19.3 kmh NW 19.0 mph30.6 kmh 30.09 in1019.0 mb 0.00 in0.0 mm 0.00 in0.0 mm 0.00 in0.0 mm
05:04 PM 55.6°F13.1°C 25.5°F-3.6°C 31% 5.0 mph NW8.0 kmh NW 16.0 mph25.7 kmh 30.09 in1019.0 mb 0.00 in0.0 mm 0.00 in0.0 mm 0.00 in0.0 mm
05:06 PM 55.5°F13.1°C 25.4°F-3.7°C 31% 12.0 mph NW19.3 kmh NW 17.0 mph27.4 kmh 30.09 in1019.0 mb 0.00 in0.0 mm 0.00 in0.0 mm 0.00 in0.0 mm
05:08 PM 55.4°F13.0°C 25.3°F-3.7°C 31% 14.0 mph NW22.5 kmh NW 18.0 mph29.0 kmh 30.09 in1019.0 mb 0.00 in0.0 mm 0.00 in0.0 mm 0.00 in0.0 mm
05:10 PM 55.3°F12.9°C 25.2°F-3.8°C 31% 14.0 mph WNW22.5 kmh WNW 18.0 mph29.0 kmh 30.09 in1019.0 mb 0.00 in0.0 mm 0.00 in0.0 mm 0.00 in0.0 mm
05:12 PM 55.3°F12.9°C 25.2°F-3.8°C 31% 10.0 mph NW16.1 kmh NW 18.0 mph29.0 kmh 30.09 in1019.0 mb 0.00 in0.0 mm 0.00 in0.0 mm 0.00 in0.0 mm
05:14 PM 55.2°F12.9°C 25.1°F-3.8°C 31% 16.0 mph NW25.7 kmh NW 18.0 mph29.0 kmh 30.09 in1019.0 mb 0.00 in0.0 mm 0.00 in0.0 mm 0.00 in0.0 mm
05:16 PM 55.1°F12.8°C 25.0°F-3.9°C 31% 13.0 mph WNW20.9 kmh WNW 20.0 mph32.2 kmh 30.09 in1019.0 mb 0.00 in0.0 mm 0.00 in0.0 mm 0.00 in0.0 mm
05:18 PM 55.0°F12.8°C 24.9°F-3.9°C 31% 14.0 mph NW22.5 kmh NW 20.0 mph32.2 kmh 30.09 in1019.0 mb 0.00 in0.0 mm 0.00 in0.0 mm 0.00 in0.0 mm
05:20 PM 55.0°F12.8°C 24.9°F-3.9°C 31% 11.0 mph NW17.7 kmh NW 20.0 mph32.2 kmh 30.09 in1019.0 mb 0.00 in0.0 mm 0.00 in0.0 mm 0.00 in0.0 mm
05:22 PM 54.8°F12.7°C 25.5°F-3.6°C 32% 14.0 mph WNW22.5 kmh WNW 20.0 mph32.2 kmh 30.09 in1019.0 mb 0.00 in0.0 mm 0.00 in0.0 mm 0.00 in0.0 mm
05:24 PM 54.7°F12.6°C 25.4°F-3.7°C 32% 9.0 mph WNW14.5 kmh WNW 20.0 mph32.2 kmh 30.09 in1019.0 mb 0.00 in0.0 mm 0.00 in0.0 mm 0.00 in0.0 mm
05:26 PM 54.6°F12.6°C 25.4°F-3.7°C 32% 6.0 mph W9.7 kmh W 20.0 mph32.2 kmh 30.09 in1019.0 mb 0.00 in0.0 mm 0.00 in0.0 mm 0.00 in0.0 mm
05:28 PM 54.5°F12.5°C 25.3°F-3.7°C 32% 7.0 mph W11.3 kmh W 20.0 mph32.2 kmh 30.09 in1019.0 mb 0.00 in0.0 mm 0.00 in0.0 mm 0.00 in0.0 mm
05:30 PM 54.5°F12.5°C 25.3°F-3.7°C 32% 9.0 mph W14.5 kmh W 20.0 mph32.2 kmh 30.09 in1019.0 mb 0.00 in0.0 mm 0.00 in0.0 mm 0.00 in0.0 mm
05:32 PM 54.4°F12.4°C 25.2°F-3.8°C 32% 11.0 mph NW17.7 kmh NW 20.0 mph32.2 kmh 30.09 in1019.0 mb 0.00 in0.0 mm 0.00 in0.0 mm 0.00 in0.0 mm
05:34 PM 54.3°F12.4°C 25.1°F-3.8°C 32% 9.0 mph W14.5 kmh W 15.0 mph24.1 kmh 30.10 in1019.3 mb 0.00 in0.0 mm 0.00 in0.0 mm 0.00 in0.0 mm
05:36 PM 54.2°F12.3°C 25.0°F-3.9°C 32% 12.0 mph WNW19.3 kmh WNW 15.0 mph24.1 kmh 30.10 in1019.3 mb 0.00 in0.0 mm 0.00 in0.0 mm 0.00 in0.0 mm
05:38 PM 54.2°F12.3°C 25.0°F-3.9°C 32% 11.0 mph WNW17.7 kmh WNW 15.0 mph24.1 kmh 30.10 in1019.3 mb 0.00 in0.0 mm 0.00 in0.0 mm 0.00 in0.0 mm
05:40 PM 54.2°F12.3°C 25.7°F-3.5°C 33% 10.0 mph WNW16.1 kmh WNW 15.0 mph24.1 kmh 30.10 in1019.3 mb 0.00 in0.0 mm 0.00 in0.0 mm 0.00 in0.0 mm
05:42 PM 54.1°F12.3°C 25.7°F-3.5°C 33% 7.0 mph NW11.3 kmh NW 15.0 mph24.1 kmh 30.10 in1019.3 mb 0.00 in0.0 mm 0.00 in0.0 mm 0.00 in0.0 mm
05:44 PM 54.0°F12.2°C 25.6°F-3.6°C 33% 7.0 mph WNW11.3 kmh WNW 15.0 mph24.1 kmh 30.10 in1019.3 mb 0.00 in0.0 mm 0.00 in0.0 mm 0.00 in0.0 mm
05:46 PM 53.9°F12.2°C 25.5°F-3.6°C 33% 15.0 mph NW24.1 kmh NW 15.0 mph24.1 kmh 30.10 in1019.3 mb 0.00 in0.0 mm 0.00 in0.0 mm 0.00 in0.0 mm
05:48 PM 53.8°F12.1°C 25.4°F-3.7°C 33% 5.0 mph NW8.0 kmh NW 15.0 mph24.1 kmh 30.10 in1019.3 mb 0.00 in0.0 mm 0.00 in0.0 mm 0.00 in0.0 mm
05:50 PM 53.8°F12.1°C 25.4°F-3.7°C 33% 8.0 mph NW12.9 kmh NW 15.0 mph24.1 kmh 30.10 in1019.3 mb 0.00 in0.0 mm 0.00 in0.0 mm 0.00 in0.0 mm
05:52 PM 53.8°F12.1°C 25.4°F-3.7°C 33% 14.0 mph NW22.5 kmh NW 16.0 mph25.7 kmh 30.10 in1019.3 mb 0.00 in0.0 mm 0.00 in0.0 mm 0.00 in0.0 mm
05:54 PM 53.8°F12.1°C 25.4°F-3.7°C 33% 10.0 mph NNW16.1 kmh NNW 16.0 mph25.7 kmh 30.10 in1019.3 mb 0.00 in0.0 mm 0.00 in0.0 mm 0.00 in0.0 mm
05:56 PM 53.7°F12.1°C 26.0°F-3.3°C 34% 9.0 mph WNW14.5 kmh WNW 16.0 mph25.7 kmh 30.10 in1019.3 mb 0.00 in0.0 mm 0.00 in0.0 mm 0.00 in0.0 mm
05:58 PM 53.6°F12.0°C 25.2°F-3.8°C 33% 12.0 mph WNW19.3 kmh WNW 16.0 mph25.7 kmh 30.10 in1019.3 mb 0.00 in0.0 mm 0.00 in0.0 mm 0.00 in0.0 mm
06:00 PM 53.5°F11.9°C 25.8°F-3.4°C 34% 8.0 mph NW12.9 kmh NW 16.0 mph25.7 kmh 30.10 in1019.3 mb 0.00 in0.0 mm 0.00 in0.0 mm 0.00 in0.0 mm
06:02 PM 53.4°F11.9°C 25.8°F-3.4°C 34% 10.0 mph WNW16.1 kmh WNW 16.0 mph25.7 kmh 30.10 in1019.3 mb 0.00 in0.0 mm 0.00 in0.0 mm 0.00 in0.0 mm
06:04 PM 53.3°F11.8°C 25.7°F-3.5°C 34% 9.0 mph NW14.5 kmh NW 9.0 mph14.5 kmh 30.10 in1019.3 mb 0.00 in0.0 mm 0.00 in0.0 mm 0.00 in0.0 mm
06:06 PM 53.3°F11.8°C 25.7°F-3.5°C 34% 4.0 mph NW6.4 kmh NW 10.0 mph16.1 kmh 30.10 in1019.3 mb 0.00 in0.0 mm 0.00 in0.0 mm 0.00 in0.0 mm
06:08 PM 53.2°F11.8°C 25.6°F-3.6°C 34% 4.0 mph W6.4 kmh W 13.0 mph20.9 kmh 30.10 in1019.3 mb 0.00 in0.0 mm 0.00 in0.0 mm 0.00 in0.0 mm
06:10 PM 53.1°F11.7°C 26.2°F-3.2°C 35% 3.0 mph W4.8 kmh W 13.0 mph20.9 kmh 30.10 in1019.3 mb 0.00 in0.0 mm 0.00 in0.0 mm 0.00 in0.0 mm
06:12 PM 53.1°F11.7°C 26.2°F-3.2°C 35% 5.0 mph NW8.0 kmh NW 13.0 mph20.9 kmh 30.11 in1019.6 mb 0.00 in0.0 mm 0.00 in0.0 mm 0.00 in0.0 mm
06:14 PM 53.0°F11.7°C 26.1°F-3.3°C 35% 7.0 mph WNW11.3 kmh WNW 13.0 mph20.9 kmh 30.10 in1019.3 mb 0.00 in0.0 mm 0.00 in0.0 mm 0.00 in0.0 mm
06:16 PM 52.9°F11.6°C 26.0°F-3.3°C 35% 6.0 mph WNW9.7 kmh WNW 13.0 mph20.9 kmh 30.11 in1019.6 mb 0.00 in0.0 mm 0.00 in0.0 mm 0.00 in0.0 mm
06:18 PM 52.8°F11.6°C 26.6°F-3.0°C 36% 4.0 mph WNW6.4 kmh WNW 13.0 mph20.9 kmh 30.11 in1019.6 mb 0.00 in0.0 mm 0.00 in0.0 mm 0.00 in0.0 mm
06:20 PM 52.6°F11.4°C 26.4°F-3.1°C 36% 7.0 mph NW11.3 kmh NW 13.0 mph20.9 kmh 30.11 in1019.6 mb 0.00 in0.0 mm 0.00 in0.0 mm 0.00 in0.0 mm
06:22 PM 52.6°F11.4°C 26.4°F-3.1°C 36% 4.0 mph WNW6.4 kmh WNW 13.0 mph20.9 kmh 30.11 in1019.6 mb 0.00 in0.0 mm 0.00 in0.0 mm 0.00 in0.0 mm
06:24 PM 52.5°F11.4°C 26.3°F-3.2°C 36% 4.0 mph NW6.4 kmh NW 13.0 mph20.9 kmh 30.11 in1019.6 mb 0.00 in0.0 mm 0.00 in0.0 mm 0.00 in0.0 mm
06:26 PM 52.5°F11.4°C 26.3°F-3.2°C 36% 5.0 mph NW8.0 kmh NW 13.0 mph20.9 kmh 30.11 in1019.6 mb 0.00 in0.0 mm 0.00 in0.0 mm 0.00 in0.0 mm
06:28 PM 52.4°F11.3°C 26.9°F-2.8°C 37% 3.0 mph WNW4.8 kmh WNW 13.0 mph20.9 kmh 30.11 in1019.6 mb 0.00 in0.0 mm 0.00 in0.0 mm 0.00 in0.0 mm
06:30 PM 52.3°F11.3°C 26.8°F-2.9°C 37% 5.0 mph NW8.0 kmh NW 13.0 mph20.9 kmh 30.11 in1019.6 mb 0.00 in0.0 mm 0.00 in0.0 mm 0.00 in0.0 mm
06:32 PM 52.1°F11.2°C 26.6°F-3.0°C 37% 4.0 mph WNW6.4 kmh WNW 13.0 mph20.9 kmh 30.11 in1019.6 mb 0.00 in0.0 mm 0.00 in0.0 mm 0.00 in0.0 mm
06:34 PM 52.1°F11.2°C 26.6°F-3.0°C 37% 4.0 mph WNW6.4 kmh WNW 5.0 mph8.0 kmh 30.11 in1019.6 mb 0.00 in0.0 mm 0.00 in0.0 mm 0.00 in0.0 mm
06:36 PM 51.9°F11.1°C 26.5°F-3.1°C 37% 7.0 mph WNW11.3 kmh WNW 7.0 mph11.3 kmh 30.11 in1019.6 mb 0.00 in0.0 mm 0.00 in0.0 mm 0.00 in0.0 mm
06:38 PM 51.8°F11.0°C 27.0°F-2.8°C 38% 3.0 mph W4.8 kmh W 7.0 mph11.3 kmh 30.12 in1020.0 mb 0.00 in0.0 mm 0.00 in0.0 mm 0.00 in0.0 mm
06:40 PM 51.7°F10.9°C 26.9°F-2.8°C 38% 5.0 mph NW8.0 kmh NW 7.0 mph11.3 kmh 30.11 in1019.6 mb 0.00 in0.0 mm 0.00 in0.0 mm 0.00 in0.0 mm
06:42 PM 51.6°F10.9°C 26.8°F-2.9°C 38% 3.0 mph NW4.8 kmh NW 7.0 mph11.3 kmh 30.12 in1020.0 mb 0.00 in0.0 mm 0.00 in0.0 mm 0.00 in0.0 mm
06:44 PM 51.5°F10.8°C 27.4°F-2.6°C 39% 3.0 mph WNW4.8 kmh WNW 7.0 mph11.3 kmh 30.12 in1020.0 mb 0.00 in0.0 mm 0.00 in0.0 mm 0.00 in0.0 mm
06:46 PM 51.4°F10.8°C 26.7°F-2.9°C 38% 5.0 mph WNW8.0 kmh WNW 8.0 mph12.9 kmh 30.12 in1020.0 mb 0.00 in0.0 mm 0.00 in0.0 mm 0.00 in0.0 mm
06:48 PM 51.4°F10.8°C 27.3°F-2.6°C 39% 3.0 mph W4.8 kmh W 8.0 mph12.9 kmh 30.12 in1020.0 mb 0.00 in0.0 mm 0.00 in0.0 mm 0.00 in0.0 mm
06:50 PM 51.3°F10.7°C 27.2°F-2.7°C 39% 7.0 mph WNW11.3 kmh WNW 9.0 mph14.5 kmh 30.13 in1020.3 mb 0.00 in0.0 mm 0.00 in0.0 mm 0.00 in0.0 mm
06:52 PM 51.3°F10.7°C 27.2°F-2.7°C 39% 4.0 mph NW6.4 kmh NW 9.0 mph14.5 kmh 30.12 in1020.0 mb 0.00 in0.0 mm 0.00 in0.0 mm 0.00 in0.0 mm
06:54 PM 51.2°F10.7°C 27.1°F-2.7°C 39% 4.0 mph WNW6.4 kmh WNW 9.0 mph14.5 kmh 30.13 in1020.3 mb 0.00 in0.0 mm 0.00 in0.0 mm 0.00 in0.0 mm
06:56 PM 51.2°F10.7°C 27.1°F-2.7°C 39% 3.0 mph NW4.8 kmh NW 9.0 mph14.5 kmh 30.13 in1020.3 mb 0.00 in0.0 mm 0.00 in0.0 mm 0.00 in0.0 mm
06:58 PM 51.2°F10.7°C 27.1°F-2.7°C 39% 5.0 mph WNW8.0 kmh WNW 9.0 mph14.5 kmh 30.13 in1020.3 mb 0.00 in0.0 mm 0.00 in0.0 mm 0.00 in0.0 mm
07:00 PM 51.1°F10.6°C 27.0°F-2.8°C 39% 4.0 mph NW6.4 kmh NW 9.0 mph14.5 kmh 30.13 in1020.3 mb 0.00 in0.0 mm 0.00 in0.0 mm 0.00 in0.0 mm
07:02 PM 51.0°F10.6°C 26.9°F-2.8°C 39% 3.0 mph NW4.8 kmh NW 9.0 mph14.5 kmh 30.13 in1020.3 mb 0.00 in0.0 mm 0.00 in0.0 mm 0.00 in0.0 mm
07:04 PM 51.0°F10.6°C 26.9°F-2.8°C 39% 4.0 mph WNW6.4 kmh WNW 4.0 mph6.4 kmh 30.13 in1020.3 mb 0.00 in0.0 mm 0.00 in0.0 mm 0.00 in0.0 mm
07:06 PM 50.9°F10.5°C 27.5°F-2.5°C 40% 3.0 mph NW4.8 kmh NW 8.0 mph12.9 kmh 30.13 in1020.3 mb 0.00 in0.0 mm 0.00 in0.0 mm 0.00 in0.0 mm
07:08 PM 50.9°F10.5°C 27.5°F-2.5°C 40% 3.0 mph NW4.8 kmh NW 8.0 mph12.9 kmh 30.13 in1020.3 mb 0.00 in0.0 mm 0.00 in0.0 mm 0.00 in0.0 mm
07:10 PM 50.8°F10.4°C 27.4°F-2.6°C 40% 8.0 mph WNW12.9 kmh WNW 8.0 mph12.9 kmh 30.13 in1020.3 mb 0.00 in0.0 mm 0.00 in0.0 mm 0.00 in0.0 mm
07:12 PM 50.8°F10.4°C 27.4°F-2.6°C 40% 5.0 mph NW8.0 kmh NW 9.0 mph14.5 kmh 30.13 in1020.3 mb 0.00 in0.0 mm 0.00 in0.0 mm 0.00 in0.0 mm
07:14 PM 50.7°F10.4°C 27.3°F-2.6°C 40% 4.0 mph NW6.4 kmh NW 9.0 mph14.5 kmh 30.13 in1020.3 mb 0.00 in0.0 mm 0.00 in0.0 mm 0.00 in0.0 mm
07:16 PM 50.6°F10.3°C 27.2°F-2.7°C 40% 5.0 mph NW8.0 kmh NW 9.0 mph14.5 kmh 30.13 in1020.3 mb 0.00 in0.0 mm 0.00 in0.0 mm 0.00 in0.0 mm
07:18 PM 50.5°F10.3°C 27.1°F-2.7°C 40% 4.0 mph NW6.4 kmh NW 9.0 mph14.5 kmh 30.13 in1020.3 mb 0.00 in0.0 mm 0.00 in0.0 mm 0.00 in0.0 mm
07:20 PM 50.5°F10.3°C 27.1°F-2.7°C 40% 8.0 mph WNW12.9 kmh WNW 9.0 mph14.5 kmh 30.13 in1020.3 mb 0.00 in0.0 mm 0.00 in0.0 mm 0.00 in0.0 mm
07:22 PM 50.4°F10.2°C 27.0°F-2.8°C 40% 5.0 mph NW8.0 kmh NW 9.0 mph14.5 kmh 30.13 in1020.3 mb 0.00 in0.0 mm 0.00 in0.0 mm 0.00 in0.0 mm
07:24 PM 50.4°F10.2°C 27.6°F-2.4°C 41% 5.0 mph WNW8.0 kmh WNW 9.0 mph14.5 kmh 30.13 in1020.3 mb 0.00 in0.0 mm 0.00 in0.0 mm 0.00 in0.0 mm
07:26 PM 50.4°F10.2°C 27.0°F-2.8°C 40% 3.0 mph NW4.8 kmh NW 9.0 mph14.5 kmh 30.14 in1020.7 mb 0.00 in0.0 mm 0.00 in0.0 mm 0.00 in0.0 mm
07:28 PM 50.3°F10.2°C 26.9°F-2.8°C 40% 3.0 mph NW4.8 kmh NW 9.0 mph14.5 kmh 30.14 in1020.7 mb 0.00 in0.0 mm 0.00 in0.0 mm 0.00 in0.0 mm
07:30 PM 50.4°F10.2°C 27.0°F-2.8°C 40% 8.0 mph NW12.9 kmh NW 9.0 mph14.5 kmh 30.14 in1020.7 mb 0.00 in0.0 mm 0.00 in0.0 mm 0.00 in0.0 mm
07:32 PM 50.4°F10.2°C 27.0°F-2.8°C 40% 4.0 mph WNW6.4 kmh WNW 9.0 mph14.5 kmh 30.14 in1020.7 mb 0.00 in0.0 mm 0.00 in0.0 mm 0.00 in0.0 mm
07:34 PM 50.3°F10.2°C 27.5°F-2.5°C 41% 5.0 mph WNW8.0 kmh WNW 9.0 mph14.5 kmh 30.14 in1020.7 mb 0.00 in0.0 mm 0.00 in0.0 mm 0.00 in0.0 mm
07:36 PM 50.3°F10.2°C 27.5°F-2.5°C 41% 4.0 mph WNW6.4 kmh WNW 9.0 mph14.5 kmh 30.14 in1020.7 mb 0.00 in0.0 mm 0.00 in0.0 mm 0.00 in0.0 mm
07:38 PM 50.3°F10.2°C 27.5°F-2.5°C 41% 9.0 mph NW14.5 kmh NW 10.0 mph16.1 kmh 30.14 in1020.7 mb 0.00 in0.0 mm 0.00 in0.0 mm 0.00 in0.0 mm
07:40 PM 50.4°F10.2°C 27.0°F-2.8°C 40% 5.0 mph WNW8.0 kmh WNW 10.0 mph16.1 kmh 30.14 in1020.7 mb 0.00 in0.0 mm 0.00 in0.0 mm 0.00 in0.0 mm
07:42 PM 50.4°F10.2°C 27.0°F-2.8°C 40% 4.0 mph W6.4 kmh W 10.0 mph16.1 kmh 30.14 in1020.7 mb 0.00 in0.0 mm 0.00 in0.0 mm 0.00 in0.0 mm
07:44 PM 50.4°F10.2°C 27.0°F-2.8°C 40% 5.0 mph NW8.0 kmh NW 10.0 mph16.1 kmh 30.14 in1020.7 mb 0.00 in0.0 mm 0.00 in0.0 mm 0.00 in0.0 mm
07:46 PM 50.4°F10.2°C 27.0°F-2.8°C 40% 5.0 mph NW8.0 kmh NW 11.0 mph17.7 kmh 30.14 in1020.7 mb 0.00 in0.0 mm 0.00 in0.0 mm 0.00 in0.0 mm
07:48 PM 50.4°F10.2°C 27.0°F-2.8°C 40% 4.0 mph NW6.4 kmh NW 11.0 mph17.7 kmh 30.14 in1020.7 mb 0.00 in0.0 mm 0.00 in0.0 mm 0.00 in0.0 mm
07:50 PM 50.4°F10.2°C 27.0°F-2.8°C 40% 8.0 mph NW12.9 kmh NW 11.0 mph17.7 kmh 30.15 in1021.0 mb 0.00 in0.0 mm 0.00 in0.0 mm 0.00 in0.0 mm
07:52 PM 50.3°F10.2°C 27.5°F-2.5°C 41% 3.0 mph NW4.8 kmh NW 11.0 mph17.7 kmh 30.14 in1020.7 mb 0.00 in0.0 mm 0.00 in0.0 mm 0.00 in0.0 mm
07:54 PM 50.3°F10.2°C 27.5°F-2.5°C 41% 5.0 mph NW8.0 kmh NW 11.0 mph17.7 kmh 30.14 in1020.7 mb 0.00 in0.0 mm 0.00 in0.0 mm 0.00 in0.0 mm
07:56 PM 50.2°F10.1°C 27.4°F-2.6°C 41% 7.0 mph WNW11.3 kmh WNW 11.0 mph17.7 kmh 30.15 in1021.0 mb 0.00 in0.0 mm 0.00 in0.0 mm 0.00 in0.0 mm
07:58 PM 50.1°F10.1°C 27.3°F-2.6°C 41% 3.0 mph WNW4.8 kmh WNW 11.0 mph17.7 kmh 30.15 in1021.0 mb 0.00 in0.0 mm 0.00 in0.0 mm 0.00 in0.0 mm
08:00 PM 50.0°F10.0°C 27.3°F-2.6°C 41% 5.0 mph WNW8.0 kmh WNW 11.0 mph17.7 kmh 30.15 in1021.0 mb 0.00 in0.0 mm 0.00 in0.0 mm 0.00 in0.0 mm
08:02 PM 49.9°F9.9°C 27.2°F-2.7°C 41% 7.0 mph WNW11.3 kmh WNW 11.0 mph17.7 kmh 30.15 in1021.0 mb 0.00 in0.0 mm 0.00 in0.0 mm 0.00 in0.0 mm
08:04 PM 49.8°F9.9°C 27.7°F-2.4°C 42% 4.0 mph NW6.4 kmh NW 7.0 mph11.3 kmh 30.15 in1021.0 mb 0.00 in0.0 mm 0.00 in0.0 mm 0.00 in0.0 mm
08:06 PM 49.7°F9.8°C 27.6°F-2.4°C 42% 5.0 mph NW8.0 kmh NW 9.0 mph14.5 kmh 30.15 in1021.0 mb 0.00 in0.0 mm 0.00 in0.0 mm 0.00 in0.0 mm
08:08 PM 49.5°F9.7°C 27.4°F-2.6°C 42% 9.0 mph NW14.5 kmh NW 9.0 mph14.5 kmh 30.15 in1021.0 mb 0.00 in0.0 mm 0.00 in0.0 mm 0.00 in0.0 mm
08:10 PM 49.5°F9.7°C 28.0°F-2.2°C 43% 4.0 mph WNW6.4 kmh WNW 11.0 mph17.7 kmh 30.15 in1021.0 mb 0.00 in0.0 mm 0.00 in0.0 mm 0.00 in0.0 mm
08:12 PM 49.5°F9.7°C 27.4°F-2.6°C 42% 6.0 mph NW9.7 kmh NW 11.0 mph17.7 kmh 30.15 in1021.0 mb 0.00 in0.0 mm 0.00 in0.0 mm 0.00 in0.0 mm
08:14 PM 49.4°F9.7°C 27.9°F-2.3°C 43% 7.0 mph WNW11.3 kmh WNW 11.0 mph17.7 kmh 30.15 in1021.0 mb 0.00 in0.0 mm 0.00 in0.0 mm 0.00 in0.0 mm
08:16 PM 49.4°F9.7°C 27.9°F-2.3°C 43% 4.0 mph NW6.4 kmh NW 11.0 mph17.7 kmh 30.15 in1021.0 mb 0.00 in0.0 mm 0.00 in0.0 mm 0.00 in0.0 mm
08:18 PM 49.4°F9.7°C 27.9°F-2.3°C 43% 7.0 mph WNW11.3 kmh WNW 11.0 mph17.7 kmh 30.16 in1021.3 mb 0.00 in0.0 mm 0.00 in0.0 mm 0.00 in0.0 mm
08:20 PM 49.4°F9.7°C 27.9°F-2.3°C 43% 8.0 mph NW12.9 kmh NW 11.0 mph17.7 kmh 30.16 in1021.3 mb 0.00 in0.0 mm 0.00 in0.0 mm 0.00 in0.0 mm
08:22 PM 49.3°F9.6°C 27.2°F-2.7°C 42% 5.0 mph NW8.0 kmh NW 11.0 mph17.7 kmh 30.16 in1021.3 mb 0.00 in0.0 mm 0.00 in0.0 mm 0.00 in0.0 mm
08:24 PM 49.3°F9.6°C 27.8°F-2.3°C 43% 4.0 mph WNW6.4 kmh WNW 11.0 mph17.7 kmh 30.16 in1021.3 mb 0.00 in0.0 mm 0.00 in0.0 mm 0.00 in0.0 mm
08:26 PM 49.2°F9.6°C 27.7°F-2.4°C 43% 5.0 mph NW8.0 kmh NW 11.0 mph17.7 kmh 30.16 in1021.3 mb 0.00 in0.0 mm 0.00 in0.0 mm 0.00 in0.0 mm
08:28 PM 49.2°F9.6°C 27.7°F-2.4°C 43% 7.0 mph NW11.3 kmh NW 11.0 mph17.7 kmh 30.16 in1021.3 mb 0.00 in0.0 mm 0.00 in0.0 mm 0.00 in0.0 mm
08:30 PM 49.2°F9.6°C 27.1°F-2.7°C 42% 7.0 mph NW11.3 kmh NW 11.0 mph17.7 kmh 30.16 in1021.3 mb 0.00 in0.0 mm 0.00 in0.0 mm 0.00 in0.0 mm
08:32 PM 49.3°F9.6°C 27.2°F-2.7°C 42% 5.0 mph NW8.0 kmh NW 11.0 mph17.7 kmh 30.16 in1021.3 mb 0.00 in0.0 mm 0.00 in0.0 mm 0.00 in0.0 mm
08:34 PM 49.3°F9.6°C 27.2°F-2.7°C 42% 5.0 mph NW8.0 kmh NW 10.0 mph16.1 kmh 30.16 in1021.3 mb 0.00 in0.0 mm 0.00 in0.0 mm 0.00 in0.0 mm
08:36 PM 49.3°F9.6°C 27.2°F-2.7°C 42% 7.0 mph NW11.3 kmh NW 10.0 mph16.1 kmh 30.16 in1021.3 mb 0.00 in0.0 mm 0.00 in0.0 mm 0.00 in0.0 mm
08:38 PM 49.3°F9.6°C 27.2°F-2.7°C 42% 8.0 mph NW12.9 kmh NW 10.0 mph16.1 kmh 30.17 in1021.7 mb 0.00 in0.0 mm 0.00 in0.0 mm 0.00 in0.0 mm
08:40 PM 49.3°F9.6°C 27.2°F-2.7°C 42% 4.0 mph NNW6.4 kmh NNW 10.0 mph16.1 kmh 30.16 in1021.3 mb 0.00 in0.0 mm 0.00 in0.0 mm 0.00 in0.0 mm
08:42 PM 49.2°F9.6°C 27.1°F-2.7°C 42% 6.0 mph NW9.7 kmh NW 10.0 mph16.1 kmh 30.17 in1021.7 mb 0.00 in0.0 mm 0.00 in0.0 mm 0.00 in0.0 mm
08:44 PM 49.2°F9.6°C 27.1°F-2.7°C 42% 5.0 mph NW8.0 kmh NW 10.0 mph16.1 kmh 30.16 in1021.3 mb 0.00 in0.0 mm 0.00 in0.0 mm 0.00 in0.0 mm
08:46 PM 49.2°F9.6°C 27.1°F-2.7°C 42% 10.0 mph NW16.1 kmh NW 11.0 mph17.7 kmh 30.17 in1021.7 mb 0.00 in0.0 mm 0.00 in0.0 mm 0.00 in0.0 mm
08:48 PM 49.2°F9.6°C 27.1°F-2.7°C 42% 5.0 mph NW8.0 kmh NW 11.0 mph17.7 kmh 30.17 in1021.7 mb 0.00 in0.0 mm 0.00 in0.0 mm 0.00 in0.0 mm
08:50 PM 49.2°F9.6°C 27.1°F-2.7°C 42% 4.0 mph NW6.4 kmh NW 11.0 mph17.7 kmh 30.17 in1021.7 mb 0.00 in0.0 mm 0.00 in0.0 mm 0.00 in0.0 mm
08:52 PM 49.1°F9.5°C 27.0°F-2.8°C 42% 8.0 mph NW12.9 kmh NW 11.0 mph17.7 kmh 30.17 in1021.7 mb 0.00 in0.0 mm 0.00 in0.0 mm 0.00 in0.0 mm
08:54 PM 49.1°F9.5°C 27.0°F-2.8°C 42% 9.0 mph NW14.5 kmh NW 11.0 mph17.7 kmh 30.17 in1021.7 mb 0.00 in0.0 mm 0.00 in0.0 mm 0.00 in0.0 mm
08:56 PM 49.0°F9.4°C 27.5°F-2.5°C 43% 5.0 mph NW8.0 kmh NW 11.0 mph17.7 kmh 30.17 in1021.7 mb 0.00 in0.0 mm 0.00 in0.0 mm 0.00 in0.0 mm
08:58 PM 48.9°F9.4°C 27.4°F-2.6°C 43% 4.0 mph NW6.4 kmh NW 11.0 mph17.7 kmh 30.17 in1021.7 mb 0.00 in0.0 mm 0.00 in0.0 mm 0.00 in0.0 mm
08:59 PM 48.8°F9.3°C 27.3°F-2.6°C 43% 5.0 mph NW8.0 kmh NW 11.0 mph17.7 kmh 30.17 in1021.7 mb 0.00 in0.0 mm 0.00 in0.0 mm 0.00 in0.0 mm
09:02 PM 48.7°F9.3°C 27.2°F-2.7°C 43% 7.0 mph WNW11.3 kmh WNW 11.0 mph17.7 kmh 30.17 in1021.7 mb 0.00 in0.0 mm 0.00 in0.0 mm 0.00 in0.0 mm
09:04 PM 48.6°F9.2°C 27.7°F-2.4°C 44% 4.0 mph NW6.4 kmh NW 7.0 mph11.3 kmh 30.17 in1021.7 mb 0.00 in0.0 mm 0.00 in0.0 mm 0.00 in0.0 mm
09:06 PM 48.5°F9.2°C 27.6°F-2.4°C 44% 8.0 mph NW12.9 kmh NW 10.0 mph16.1 kmh 30.17 in1021.7 mb 0.00 in0.0 mm 0.00 in0.0 mm 0.00 in0.0 mm
09:08 PM 48.5°F9.2°C 27.6°F-2.4°C 44% 8.0 mph WNW12.9 kmh WNW 10.0 mph16.1 kmh 30.17 in1021.7 mb 0.00 in0.0 mm 0.00 in0.0 mm 0.00 in0.0 mm
09:10 PM 48.4°F9.1°C 27.5°F-2.5°C 44% 8.0 mph NW12.9 kmh NW 10.0 mph16.1 kmh 30.17 in1021.7 mb 0.00 in0.0 mm 0.00 in0.0 mm 0.00 in0.0 mm
09:12 PM 48.5°F9.2°C 27.6°F-2.4°C 44% 4.0 mph NW6.4 kmh NW 10.0 mph16.1 kmh 30.17 in1021.7 mb 0.00 in0.0 mm 0.00 in0.0 mm 0.00 in0.0 mm
09:13 PM 48.4°F9.1°C 27.5°F-2.5°C 44% 5.0 mph NW8.0 kmh NW 10.0 mph16.1 kmh 30.17 in1021.7 mb 0.00 in0.0 mm 0.00 in0.0 mm 0.00 in0.0 mm
09:16 PM 48.3°F9.1°C 27.4°F-2.6°C 44% 8.0 mph NW12.9 kmh NW 10.0 mph16.1 kmh 30.17 in1021.7 mb 0.00 in0.0 mm 0.00 in0.0 mm 0.00 in0.0 mm
09:18 PM 48.2°F9.0°C 27.3°F-2.6°C 44% 8.0 mph NW12.9 kmh NW 10.0 mph16.1 kmh 30.18 in1022.0 mb 0.00 in0.0 mm 0.00 in0.0 mm 0.00 in0.0 mm
09:20 PM 48.2°F9.0°C 27.3°F-2.6°C 44% 7.0 mph NW11.3 kmh NW 10.0 mph16.1 kmh 30.17 in1021.7 mb 0.00 in0.0 mm 0.00 in0.0 mm 0.00 in0.0 mm
09:22 PM 48.2°F9.0°C 27.3°F-2.6°C 44% 4.0 mph NW6.4 kmh NW 10.0 mph16.1 kmh 30.17 in1021.7 mb 0.00 in0.0 mm 0.00 in0.0 mm 0.00 in0.0 mm
09:24 PM 48.1°F8.9°C 27.2°F-2.7°C 44% 7.0 mph NW11.3 kmh NW 10.0 mph16.1 kmh 30.18 in1022.0 mb 0.00 in0.0 mm 0.00 in0.0 mm 0.00 in0.0 mm
09:26 PM 48.0°F8.9°C 27.7°F-2.4°C 45% 8.0 mph NW12.9 kmh NW 10.0 mph16.1 kmh 30.18 in1022.0 mb 0.00 in0.0 mm 0.00 in0.0 mm 0.00 in0.0 mm
09:28 PM 47.9°F8.8°C 27.6°F-2.4°C 45% 5.0 mph NW8.0 kmh NW 10.0 mph16.1 kmh 30.18 in1022.0 mb 0.00 in0.0 mm 0.00 in0.0 mm 0.00 in0.0 mm
09:30 PM 47.9°F8.8°C 27.6°F-2.4°C 45% 3.0 mph NW4.8 kmh NW 10.0 mph16.1 kmh 30.18 in1022.0 mb 0.00 in0.0 mm 0.00 in0.0 mm 0.00 in0.0 mm
09:32 PM 47.8°F8.8°C 27.5°F-2.5°C 45% 2.0 mph NW3.2 kmh NW 10.0 mph16.1 kmh 30.18 in1022.0 mb 0.00 in0.0 mm 0.00 in0.0 mm 0.00 in0.0 mm
09:34 PM 47.7°F8.7°C 27.4°F-2.6°C 45% 4.0 mph NW6.4 kmh NW 7.0 mph11.3 kmh 30.18 in1022.0 mb 0.00 in0.0 mm 0.00 in0.0 mm 0.00 in0.0 mm
09:36 PM 47.6°F8.7°C 27.3°F-2.6°C 45% 3.0 mph NW4.8 kmh NW 7.0 mph11.3 kmh 30.18 in1022.0 mb 0.00 in0.0 mm 0.00 in0.0 mm 0.00 in0.0 mm
09:38 PM 47.5°F8.6°C 27.2°F-2.7°C 45% 4.0 mph WNW6.4 kmh WNW 8.0 mph12.9 kmh 30.18 in1022.0 mb 0.00 in0.0 mm 0.00 in0.0 mm 0.00 in0.0 mm
09:40 PM 47.5°F8.6°C 27.8°F-2.3°C 46% 3.0 mph NW4.8 kmh NW 8.0 mph12.9 kmh 30.18 in1022.0 mb 0.00 in0.0 mm 0.00 in0.0 mm 0.00 in0.0 mm
09:42 PM 47.5°F8.6°C 27.8°F-2.3°C 46% 9.0 mph NW14.5 kmh NW 9.0 mph14.5 kmh 30.18 in1022.0 mb 0.00 in0.0 mm 0.00 in0.0 mm 0.00 in0.0 mm
09:44 PM 47.4°F8.6°C 27.7°F-2.4°C 46% 5.0 mph NW8.0 kmh NW 9.0 mph14.5 kmh 30.19 in1022.4 mb 0.00 in0.0 mm 0.00 in0.0 mm 0.00 in0.0 mm
09:46 PM 47.4°F8.6°C 27.7°F-2.4°C 46% 4.0 mph NW6.4 kmh NW 9.0 mph14.5 kmh 30.18 in1022.0 mb 0.00 in0.0 mm 0.00 in0.0 mm 0.00 in0.0 mm
09:48 PM 47.3°F8.5°C 27.6°F-2.4°C 46% 4.0 mph NW6.4 kmh NW 9.0 mph14.5 kmh 30.19 in1022.4 mb 0.00 in0.0 mm 0.00 in0.0 mm 0.00 in0.0 mm
09:50 PM 47.3°F8.5°C 27.6°F-2.4°C 46% 5.0 mph NW8.0 kmh NW 9.0 mph14.5 kmh 30.19 in1022.4 mb 0.00 in0.0 mm 0.00 in0.0 mm 0.00 in0.0 mm
09:52 PM 47.3°F8.5°C 27.6°F-2.4°C 46% 5.0 mph NW8.0 kmh NW 9.0 mph14.5 kmh 30.19 in1022.4 mb 0.00 in0.0 mm 0.00 in0.0 mm 0.00 in0.0 mm
09:54 PM 47.2°F8.4°C 27.5°F-2.5°C 46% 5.0 mph WNW8.0 kmh WNW 9.0 mph14.5 kmh 30.19 in1022.4 mb 0.00 in0.0 mm 0.00 in0.0 mm 0.00 in0.0 mm
09:56 PM 47.2°F8.4°C 27.5°F-2.5°C 46% 5.0 mph NW8.0 kmh NW 9.0 mph14.5 kmh 30.19 in1022.4 mb 0.00 in0.0 mm 0.00 in0.0 mm 0.00 in0.0 mm
09:58 PM 47.1°F8.4°C 27.4°F-2.6°C 46% 5.0 mph WNW8.0 kmh WNW 9.0 mph14.5 kmh 30.19 in1022.4 mb 0.00 in0.0 mm 0.00 in0.0 mm 0.00 in0.0 mm
10:00 PM 47.1°F8.4°C 27.4°F-2.6°C 46% 4.0 mph NW6.4 kmh NW 9.0 mph14.5 kmh 30.19 in1022.4 mb 0.00 in0.0 mm 0.00 in0.0 mm 0.00 in0.0 mm
10:02 PM 47.1°F8.4°C 27.4°F-2.6°C 46% 9.0 mph NW14.5 kmh NW 9.0 mph14.5 kmh 30.19 in1022.4 mb 0.00 in0.0 mm 0.00 in0.0 mm 0.00 in0.0 mm
10:04 PM 46.9°F8.3°C 27.7°F-2.4°C 47% 5.0 mph NW8.0 kmh NW 8.0 mph12.9 kmh 30.19 in1022.4 mb 0.00 in0.0 mm 0.00 in0.0 mm 0.00 in0.0 mm
10:06 PM 46.9°F8.3°C 27.7°F-2.4°C 47% 8.0 mph NW12.9 kmh NW 8.0 mph12.9 kmh 30.19 in1022.4 mb 0.00 in0.0 mm 0.00 in0.0 mm 0.00 in0.0 mm
10:08 PM 46.8°F8.2°C 27.7°F-2.4°C 47% 5.0 mph NW8.0 kmh NW 8.0 mph12.9 kmh 30.19 in1022.4 mb 0.00 in0.0 mm 0.00 in0.0 mm 0.00 in0.0 mm
10:10 PM 46.8°F8.2°C 27.7°F-2.4°C 47% 5.0 mph WNW8.0 kmh WNW 8.0 mph12.9 kmh 30.20 in1022.7 mb 0.00 in0.0 mm 0.00 in0.0 mm 0.00 in0.0 mm
10:12 PM 46.8°F8.2°C 27.7°F-2.4°C 47% 3.0 mph NW4.8 kmh NW 8.0 mph12.9 kmh 30.20 in1022.7 mb 0.00 in0.0 mm 0.00 in0.0 mm 0.00 in0.0 mm
10:14 PM 46.7°F8.2°C 27.6°F-2.4°C 47% 4.0 mph NW6.4 kmh NW 8.0 mph12.9 kmh 30.20 in1022.7 mb 0.00 in0.0 mm 0.00 in0.0 mm 0.00 in0.0 mm
10:16 PM 46.6°F8.1°C 27.5°F-2.5°C 47% 5.0 mph NW8.0 kmh NW 8.0 mph12.9 kmh 30.20 in1022.7 mb 0.00 in0.0 mm 0.00 in0.0 mm 0.00 in0.0 mm
10:18 PM 46.6°F8.1°C 27.5°F-2.5°C 47% 5.0 mph NW8.0 kmh NW 8.0 mph12.9 kmh 30.20 in1022.7 mb 0.00 in0.0 mm 0.00 in0.0 mm 0.00 in0.0 mm
10:20 PM 46.4°F8.0°C 27.3°F-2.6°C 47% 7.0 mph NW11.3 kmh NW 8.0 mph12.9 kmh 30.20 in1022.7 mb 0.00 in0.0 mm 0.00 in0.0 mm 0.00 in0.0 mm
10:22 PM 46.4°F8.0°C 27.3°F-2.6°C 47% 4.0 mph NW6.4 kmh NW 8.0 mph12.9 kmh 30.20 in1022.7 mb 0.00 in0.0 mm 0.00 in0.0 mm 0.00 in0.0 mm
10:24 PM 46.4°F8.0°C 27.3°F-2.6°C 47% 5.0 mph WNW8.0 kmh WNW 8.0 mph12.9 kmh 30.20 in1022.7 mb 0.00 in0.0 mm 0.00 in0.0 mm 0.00 in0.0 mm
10:26 PM 46.3°F7.9°C 27.7°F-2.4°C 48% 4.0 mph WNW6.4 kmh WNW 8.0 mph12.9 kmh 30.20 in1022.7 mb 0.00 in0.0 mm 0.00 in0.0 mm 0.00 in0.0 mm
10:28 PM 46.2°F7.9°C 27.6°F-2.4°C 48% 4.0 mph WNW6.4 kmh WNW 8.0 mph12.9 kmh 30.20 in1022.7 mb 0.00 in0.0 mm 0.00 in0.0 mm 0.00 in0.0 mm
10:30 PM 46.1°F7.8°C 27.5°F-2.5°C 48% 4.0 mph WNW6.4 kmh WNW 8.0 mph12.9 kmh 30.20 in1022.7 mb 0.00 in0.0 mm 0.00 in0.0 mm 0.00 in0.0 mm
10:32 PM 46.1°F7.8°C 27.5°F-2.5°C 48% 5.0 mph NW8.0 kmh NW 8.0 mph12.9 kmh 30.20 in1022.7 mb 0.00 in0.0 mm 0.00 in0.0 mm 0.00 in0.0 mm
10:34 PM 46.1°F7.8°C 27.5°F-2.5°C 48% 6.0 mph NW9.7 kmh NW 6.0 mph9.7 kmh 30.20 in1022.7 mb 0.00 in0.0 mm 0.00 in0.0 mm 0.00 in0.0 mm
10:36 PM 46.0°F7.8°C 27.4°F-2.6°C 48% 4.0 mph WNW6.4 kmh WNW 7.0 mph11.3 kmh 30.20 in1022.7 mb 0.00 in0.0 mm 0.00 in0.0 mm 0.00 in0.0 mm
10:38 PM 45.9°F7.7°C 27.3°F-2.6°C 48% 4.0 mph NW6.4 kmh NW 7.0 mph11.3 kmh 30.20 in1022.7 mb 0.00 in0.0 mm 0.00 in0.0 mm 0.00 in0.0 mm
10:40 PM 45.9°F7.7°C 27.3°F-2.6°C 48% 4.0 mph WNW6.4 kmh WNW 8.0 mph12.9 kmh 30.20 in1022.7 mb 0.00 in0.0 mm 0.00 in0.0 mm 0.00 in0.0 mm
10:42 PM 45.9°F7.7°C 27.3°F-2.6°C 48% 7.0 mph WNW11.3 kmh WNW 8.0 mph12.9 kmh 30.20 in1022.7 mb 0.00 in0.0 mm 0.00 in0.0 mm 0.00 in0.0 mm
10:44 PM 45.8°F7.7°C 27.2°F-2.7°C 48% 7.0 mph W11.3 kmh W 8.0 mph12.9 kmh 30.20 in1022.7 mb 0.00 in0.0 mm 0.00 in0.0 mm 0.00 in0.0 mm
10:46 PM 45.8°F7.7°C 27.2°F-2.7°C 48% 5.0 mph WNW8.0 kmh WNW 8.0 mph12.9 kmh 30.21 in1023.0 mb 0.00 in0.0 mm 0.00 in0.0 mm 0.00 in0.0 mm
10:48 PM 45.7°F7.6°C 27.7°F-2.4°C 49% 4.0 mph WNW6.4 kmh WNW 8.0 mph12.9 kmh 30.20 in1022.7 mb 0.00 in0.0 mm 0.00 in0.0 mm 0.00 in0.0 mm
10:50 PM 45.7°F7.6°C 27.7°F-2.4°C 49% 7.0 mph WNW11.3 kmh WNW 8.0 mph12.9 kmh 30.20 in1022.7 mb 0.00 in0.0 mm 0.00 in0.0 mm 0.00 in0.0 mm
10:52 PM 45.6°F7.6°C 27.6°F-2.4°C 49% 4.0 mph WNW6.4 kmh WNW 8.0 mph12.9 kmh 30.21 in1023.0 mb 0.00 in0.0 mm 0.00 in0.0 mm 0.00 in0.0 mm
10:54 PM 45.6°F7.6°C 27.6°F-2.4°C 49% 4.0 mph NW6.4 kmh NW 9.0 mph14.5 kmh 30.21 in1023.0 mb 0.00 in0.0 mm 0.00 in0.0 mm 0.00 in0.0 mm
10:56 PM 45.5°F7.5°C 27.5°F-2.5°C 49% 5.0 mph WNW8.0 kmh WNW 9.0 mph14.5 kmh 30.21 in1023.0 mb 0.00 in0.0 mm 0.00 in0.0 mm 0.00 in0.0 mm
10:58 PM 45.5°F7.5°C 27.5°F-2.5°C 49% 4.0 mph WNW6.4 kmh WNW 9.0 mph14.5 kmh 30.20 in1022.7 mb 0.00 in0.0 mm 0.00 in0.0 mm 0.00 in0.0 mm
11:00 PM 45.5°F7.5°C 27.5°F-2.5°C 49% 4.0 mph NW6.4 kmh NW 9.0 mph14.5 kmh 30.21 in1023.0 mb 0.00 in0.0 mm 0.00 in0.0 mm 0.00 in0.0 mm
11:02 PM 45.4°F7.4°C 27.9°F-2.3°C 50% 3.0 mph WNW4.8 kmh WNW 9.0 mph14.5 kmh 30.20 in1022.7 mb 0.00 in0.0 mm 0.00 in0.0 mm 0.00 in0.0 mm
11:04 PM 45.3°F7.4°C 27.8°F-2.3°C 50% 5.0 mph NW8.0 kmh NW 7.0 mph11.3 kmh 30.21 in1023.0 mb 0.00 in0.0 mm 0.00 in0.0 mm 0.00 in0.0 mm
11:06 PM 45.3°F7.4°C 27.8°F-2.3°C 50% 5.0 mph WNW8.0 kmh WNW 8.0 mph12.9 kmh 30.21 in1023.0 mb 0.00 in0.0 mm 0.00 in0.0 mm 0.00 in0.0 mm
11:08 PM 45.2°F7.3°C 27.7°F-2.4°C 50% 4.0 mph W6.4 kmh W 8.0 mph12.9 kmh 30.21 in1023.0 mb 0.00 in0.0 mm 0.00 in0.0 mm 0.00 in0.0 mm
11:10 PM 45.2°F7.3°C 27.7°F-2.4°C 50% 4.0 mph WNW6.4 kmh WNW 8.0 mph12.9 kmh 30.21 in1023.0 mb 0.00 in0.0 mm 0.00 in0.0 mm 0.00 in0.0 mm
11:12 PM 45.1°F7.3°C 27.6°F-2.4°C 50% 7.0 mph NW11.3 kmh NW 9.0 mph14.5 kmh 30.21 in1023.0 mb 0.00 in0.0 mm 0.00 in0.0 mm 0.00 in0.0 mm
11:14 PM 45.0°F7.2°C 27.5°F-2.5°C 50% 7.0 mph WNW11.3 kmh WNW 9.0 mph14.5 kmh 30.21 in1023.0 mb 0.00 in0.0 mm 0.00 in0.0 mm 0.00 in0.0 mm
11:16 PM 44.9°F7.2°C 27.9°F-2.3°C 51% 5.0 mph NW8.0 kmh NW 9.0 mph14.5 kmh 30.21 in1023.0 mb 0.00 in0.0 mm 0.00 in0.0 mm 0.00 in0.0 mm
11:18 PM 44.8°F7.1°C 27.8°F-2.3°C 51% 6.0 mph WNW9.7 kmh WNW 9.0 mph14.5 kmh 30.21 in1023.0 mb 0.00 in0.0 mm 0.00 in0.0 mm 0.00 in0.0 mm
11:20 PM 44.7°F7.1°C 27.7°F-2.4°C 51% 4.0 mph NW6.4 kmh NW 9.0 mph14.5 kmh 30.20 in1022.7 mb 0.00 in0.0 mm 0.00 in0.0 mm 0.00 in0.0 mm
11:22 PM 44.6°F7.0°C 27.6°F-2.4°C 51% 8.0 mph NW12.9 kmh NW 9.0 mph14.5 kmh 30.21 in1023.0 mb 0.00 in0.0 mm 0.00 in0.0 mm 0.00 in0.0 mm
11:24 PM 44.5°F6.9°C 27.5°F-2.5°C 51% 5.0 mph WNW8.0 kmh WNW 9.0 mph14.5 kmh 30.20 in1022.7 mb 0.00 in0.0 mm 0.00 in0.0 mm 0.00 in0.0 mm
11:26 PM 44.4°F6.9°C 27.9°F-2.3°C 52% 5.0 mph NW8.0 kmh NW 10.0 mph16.1 kmh 30.20 in1022.7 mb 0.00 in0.0 mm 0.00 in0.0 mm 0.00 in0.0 mm
11:28 PM 44.4°F6.9°C 27.9°F-2.3°C 52% 7.0 mph WNW11.3 kmh WNW 10.0 mph16.1 kmh 30.21 in1023.0 mb 0.00 in0.0 mm 0.00 in0.0 mm 0.00 in0.0 mm
11:30 PM 44.4°F6.9°C 27.9°F-2.3°C 52% 8.0 mph NW12.9 kmh NW 10.0 mph16.1 kmh 30.21 in1023.0 mb 0.00 in0.0 mm 0.00 in0.0 mm 0.00 in0.0 mm
11:32 PM 44.4°F6.9°C 27.9°F-2.3°C 52% 5.0 mph WNW8.0 kmh WNW 10.0 mph16.1 kmh 30.21 in1023.0 mb 0.00 in0.0 mm 0.00 in0.0 mm 0.00 in0.0 mm
11:34 PM 44.3°F6.8°C 27.8°F-2.3°C 52% 7.0 mph NW11.3 kmh NW 10.0 mph16.1 kmh 30.21 in1023.0 mb 0.00 in0.0 mm 0.00 in0.0 mm 0.00 in0.0 mm
11:36 PM 44.3°F6.8°C 27.8°F-2.3°C 52% 5.0 mph NW8.0 kmh NW 10.0 mph16.1 kmh 30.21 in1023.0 mb 0.00 in0.0 mm 0.00 in0.0 mm 0.00 in0.0 mm
11:38 PM 44.3°F6.8°C 27.8°F-2.3°C 52% 8.0 mph NW12.9 kmh NW 10.0 mph16.1 kmh 30.21 in1023.0 mb 0.00 in0.0 mm 0.00 in0.0 mm 0.00 in0.0 mm
11:40 PM 44.2°F6.8°C 27.7°F-2.4°C 52% 4.0 mph NW6.4 kmh NW 10.0 mph16.1 kmh 30.21 in1023.0 mb 0.00 in0.0 mm 0.00 in0.0 mm 0.00 in0.0 mm
11:42 PM 44.2°F6.8°C 27.7°F-2.4°C 52% 9.0 mph WNW14.5 kmh WNW 10.0 mph16.1 kmh 30.21 in1023.0 mb 0.00 in0.0 mm 0.00 in0.0 mm 0.00 in0.0 mm
11:44 PM 44.2°F6.8°C 27.7°F-2.4°C 52% 5.0 mph NW8.0 kmh NW 10.0 mph16.1 kmh 30.21 in1023.0 mb 0.00 in0.0 mm 0.00 in0.0 mm 0.00 in0.0 mm
11:46 PM 44.2°F6.8°C 27.7°F-2.4°C 52% 4.0 mph WNW6.4 kmh WNW 10.0 mph16.1 kmh 30.21 in1023.0 mb 0.00 in0.0 mm 0.00 in0.0 mm 0.00 in0.0 mm
11:48 PM 44.2°F6.8°C 27.7°F-2.4°C 52% 5.0 mph NW8.0 kmh NW 10.0 mph16.1 kmh 30.21 in1023.0 mb 0.00 in0.0 mm 0.00 in0.0 mm 0.00 in0.0 mm
11:50 PM 44.2°F6.8°C 27.7°F-2.4°C 52% 4.0 mph NW6.4 kmh NW 10.0 mph16.1 kmh 30.21 in1023.0 mb 0.00 in0.0 mm 0.00 in0.0 mm 0.00 in0.0 mm
11:52 PM 44.1°F6.7°C 27.6°F-2.4°C 52% 5.0 mph NW8.0 kmh NW 10.0 mph16.1 kmh 30.21 in1023.0 mb 0.00 in0.0 mm 0.00 in0.0 mm 0.00 in0.0 mm
11:54 PM 44.1°F6.7°C 27.6°F-2.4°C 52% 7.0 mph WNW11.3 kmh WNW 10.0 mph16.1 kmh 30.20 in1022.7 mb 0.00 in0.0 mm 0.00 in0.0 mm 0.00 in0.0 mm
11:56 PM 44.0°F6.7°C 27.5°F-2.5°C 52% 6.0 mph NW9.7 kmh NW 10.0 mph16.1 kmh 30.20 in1022.7 mb 0.00 in0.0 mm 0.00 in0.0 mm 0.00 in0.0 mm
11:58 PM 44.0°F6.7°C 27.5°F-2.5°C 52% 7.0 mph WNW11.3 kmh WNW 10.0 mph16.1 kmh 30.20 in1022.7 mb 0.00 in0.0 mm 0.00 in0.0 mm 0.00 in0.0 mm